<?xml version="1.0" encoding="UTF-8" standalone="no" ?>
<gpx xmlns="http://www.topografix.com/GPX/1/1" xmlns:xsi="http://www.w3.org/2001/XMLSchema-instance" xsi:schemaLocation="http://www.topografix.com/GPX/1/1 http://www.topografix.com/GPX/1/1/gpx.xsd" version="1.1" creator="VisuGPX - https://www.visugpx.com">
  <metadata>
    <name>Tour de France 2019</name>
    <desc><![CDATA[4272km en 2 mois en tandem avec notre petit chien dans le panier avant]]></desc>
  </metadata>
  <trk>
    <name><![CDATA[Tracé 20191013-075210]]></name>
    <trkseg>
      <trkpt lat="43.97447" lon="7.14035">
        <ele>321.351</ele>
        <time>2019-10-13T05:55:16Z</time>
      </trkpt>
      <trkpt lat="43.97337" lon="7.14102">
        <ele>308.995</ele>
        <time>2019-10-13T05:55:49Z</time>
      </trkpt>
      <trkpt lat="43.97281" lon="7.14309">
        <ele>301.304</ele>
        <time>2019-10-13T05:56:22Z</time>
      </trkpt>
      <trkpt lat="43.97248" lon="7.1455">
        <ele>300.734</ele>
        <time>2019-10-13T05:56:55Z</time>
      </trkpt>
      <trkpt lat="43.97151" lon="7.147">
        <ele>293.629</ele>
        <time>2019-10-13T05:57:28Z</time>
      </trkpt>
      <trkpt lat="43.97" lon="7.14833">
        <ele>287.443</ele>
        <time>2019-10-13T05:57:58Z</time>
      </trkpt>
      <trkpt lat="43.96826" lon="7.15021">
        <ele>284.833</ele>
        <time>2019-10-13T05:58:31Z</time>
      </trkpt>
      <trkpt lat="43.96621" lon="7.15155">
        <ele>284.291</ele>
        <time>2019-10-13T05:59:04Z</time>
      </trkpt>
      <trkpt lat="43.96418" lon="7.15262">
        <ele>287.036</ele>
        <time>2019-10-13T05:59:37Z</time>
      </trkpt>
      <trkpt lat="43.96267" lon="7.15361">
        <ele>296.065</ele>
        <time>2019-10-13T06:00:10Z</time>
      </trkpt>
      <trkpt lat="43.96087" lon="7.15477">
        <ele>295.28</ele>
        <time>2019-10-13T06:00:43Z</time>
      </trkpt>
      <trkpt lat="43.95908" lon="7.15631">
        <ele>286.196</ele>
        <time>2019-10-13T06:01:13Z</time>
      </trkpt>
      <trkpt lat="43.95684" lon="7.15755">
        <ele>274.036</ele>
        <time>2019-10-13T06:01:46Z</time>
      </trkpt>
      <trkpt lat="43.95429" lon="7.15874">
        <ele>267.61</ele>
        <time>2019-10-13T06:02:19Z</time>
      </trkpt>
      <trkpt lat="43.95181" lon="7.15961">
        <ele>258.223</ele>
        <time>2019-10-13T06:02:52Z</time>
      </trkpt>
      <trkpt lat="43.94981" lon="7.16032">
        <ele>256.907</ele>
        <time>2019-10-13T06:03:25Z</time>
      </trkpt>
      <trkpt lat="43.9479" lon="7.1601">
        <ele>256.964</ele>
        <time>2019-10-13T06:03:55Z</time>
      </trkpt>
      <trkpt lat="43.94607" lon="7.16177">
        <ele>251.254</ele>
        <time>2019-10-13T06:04:28Z</time>
      </trkpt>
      <trkpt lat="43.94381" lon="7.16288">
        <ele>245.813</ele>
        <time>2019-10-13T06:05:01Z</time>
      </trkpt>
      <trkpt lat="43.94186" lon="7.16179">
        <ele>250.289</ele>
        <time>2019-10-13T06:05:34Z</time>
      </trkpt>
      <trkpt lat="43.93989" lon="7.1611">
        <ele>239.023</ele>
        <time>2019-10-13T06:06:07Z</time>
      </trkpt>
      <trkpt lat="43.93834" lon="7.16282">
        <ele>229.479</ele>
        <time>2019-10-13T06:06:40Z</time>
      </trkpt>
      <trkpt lat="43.93794" lon="7.16534">
        <ele>233.316</ele>
        <time>2019-10-13T06:07:10Z</time>
      </trkpt>
      <trkpt lat="43.93777" lon="7.16816">
        <ele>235.649</ele>
        <time>2019-10-13T06:07:43Z</time>
      </trkpt>
      <trkpt lat="43.93835" lon="7.17077">
        <ele>243.741</ele>
        <time>2019-10-13T06:08:16Z</time>
      </trkpt>
      <trkpt lat="43.93592" lon="7.1719">
        <ele>247.981</ele>
        <time>2019-10-13T06:08:49Z</time>
      </trkpt>
      <trkpt lat="43.93397" lon="7.17242">
        <ele>242.771</ele>
        <time>2019-10-13T06:09:22Z</time>
      </trkpt>
      <trkpt lat="43.93281" lon="7.17371">
        <ele>237.936</ele>
        <time>2019-10-13T06:09:52Z</time>
      </trkpt>
      <trkpt lat="43.93193" lon="7.17568">
        <ele>242.955</ele>
        <time>2019-10-13T06:10:25Z</time>
      </trkpt>
      <trkpt lat="43.9311" lon="7.17762">
        <ele>247.667</ele>
        <time>2019-10-13T06:10:58Z</time>
      </trkpt>
      <trkpt lat="43.93015" lon="7.17986">
        <ele>242.689</ele>
        <time>2019-10-13T06:11:31Z</time>
      </trkpt>
      <trkpt lat="43.92857" lon="7.18091">
        <ele>231.125</ele>
        <time>2019-10-13T06:12:04Z</time>
      </trkpt>
      <trkpt lat="43.92702" lon="7.18193">
        <ele>233.081</ele>
        <time>2019-10-13T06:12:37Z</time>
      </trkpt>
      <trkpt lat="43.92597" lon="7.18368">
        <ele>227.135</ele>
        <time>2019-10-13T06:13:07Z</time>
      </trkpt>
      <trkpt lat="43.9252" lon="7.18582">
        <ele>227.306</ele>
        <time>2019-10-13T06:13:40Z</time>
      </trkpt>
      <trkpt lat="43.9235" lon="7.18631">
        <ele>226.094</ele>
        <time>2019-10-13T06:14:13Z</time>
      </trkpt>
      <trkpt lat="43.9211" lon="7.18675">
        <ele>229.295</ele>
        <time>2019-10-13T06:14:46Z</time>
      </trkpt>
      <trkpt lat="43.91881" lon="7.18924">
        <ele>227.765</ele>
        <time>2019-10-13T06:15:19Z</time>
      </trkpt>
      <trkpt lat="43.91656" lon="7.18928">
        <ele>241.356</ele>
        <time>2019-10-13T06:15:49Z</time>
      </trkpt>
      <trkpt lat="43.91499" lon="7.18729">
        <ele>208.927</ele>
        <time>2019-10-13T06:16:22Z</time>
      </trkpt>
      <trkpt lat="43.91322" lon="7.18809">
        <ele>187.351</ele>
        <time>2019-10-13T06:16:55Z</time>
      </trkpt>
      <trkpt lat="43.91194" lon="7.18585">
        <ele>201.595</ele>
        <time>2019-10-13T06:17:28Z</time>
      </trkpt>
      <trkpt lat="43.91137" lon="7.18579">
        <ele>201.177</ele>
        <time>2019-10-13T06:19:22Z</time>
      </trkpt>
      <trkpt lat="43.91028" lon="7.18597">
        <ele>209.29</ele>
        <time>2019-10-13T06:19:55Z</time>
      </trkpt>
      <trkpt lat="43.8989" lon="7.18899">
        <ele>184.201</ele>
        <time>2019-10-13T06:22:23Z</time>
      </trkpt>
      <trkpt lat="43.89366" lon="7.18857">
        <ele>166.251</ele>
        <time>2019-10-13T06:23:37Z</time>
      </trkpt>
      <trkpt lat="43.89121" lon="7.18918">
        <ele>160.592</ele>
        <time>2019-10-13T06:24:10Z</time>
      </trkpt>
      <trkpt lat="43.88906" lon="7.18804">
        <ele>154.051</ele>
        <time>2019-10-13T06:24:43Z</time>
      </trkpt>
      <trkpt lat="43.88712" lon="7.18919">
        <ele>160.997</ele>
        <time>2019-10-13T06:25:16Z</time>
      </trkpt>
      <trkpt lat="43.8849" lon="7.19045">
        <ele>159.178</ele>
        <time>2019-10-13T06:25:46Z</time>
      </trkpt>
      <trkpt lat="43.88256" lon="7.19021">
        <ele>156.154</ele>
        <time>2019-10-13T06:26:19Z</time>
      </trkpt>
      <trkpt lat="43.88026" lon="7.18969">
        <ele>162.736</ele>
        <time>2019-10-13T06:26:52Z</time>
      </trkpt>
      <trkpt lat="43.87813" lon="7.19095">
        <ele>154.946</ele>
        <time>2019-10-13T06:27:25Z</time>
      </trkpt>
      <trkpt lat="43.8763" lon="7.19286">
        <ele>149.662</ele>
        <time>2019-10-13T06:27:58Z</time>
      </trkpt>
      <trkpt lat="43.87416" lon="7.19295">
        <ele>149.521</ele>
        <time>2019-10-13T06:28:31Z</time>
      </trkpt>
      <trkpt lat="43.87279" lon="7.19507">
        <ele>144.272</ele>
        <time>2019-10-13T06:29:01Z</time>
      </trkpt>
      <trkpt lat="43.87087" lon="7.19703">
        <ele>143.712</ele>
        <time>2019-10-13T06:29:34Z</time>
      </trkpt>
      <trkpt lat="43.86869" lon="7.19834">
        <ele>145.564</ele>
        <time>2019-10-13T06:30:07Z</time>
      </trkpt>
      <trkpt lat="43.8663" lon="7.19876">
        <ele>142.457</ele>
        <time>2019-10-13T06:30:40Z</time>
      </trkpt>
      <trkpt lat="43.86387" lon="7.1987">
        <ele>145.058</ele>
        <time>2019-10-13T06:31:13Z</time>
      </trkpt>
      <trkpt lat="43.86166" lon="7.19842">
        <ele>147.893</ele>
        <time>2019-10-13T06:31:43Z</time>
      </trkpt>
      <trkpt lat="43.86002" lon="7.19771">
        <ele>151.831</ele>
        <time>2019-10-13T06:32:16Z</time>
      </trkpt>
      <trkpt lat="43.85799" lon="7.19611">
        <ele>147.19</ele>
        <time>2019-10-13T06:32:49Z</time>
      </trkpt>
      <trkpt lat="43.8557" lon="7.19645">
        <ele>143.162</ele>
        <time>2019-10-13T06:33:22Z</time>
      </trkpt>
      <trkpt lat="43.85368" lon="7.19782">
        <ele>140.378</ele>
        <time>2019-10-13T06:33:55Z</time>
      </trkpt>
      <trkpt lat="43.85134" lon="7.19791">
        <ele>134.347</ele>
        <time>2019-10-13T06:34:28Z</time>
      </trkpt>
      <trkpt lat="43.84924" lon="7.19752">
        <ele>129.789</ele>
        <time>2019-10-13T06:34:58Z</time>
      </trkpt>
      <trkpt lat="43.84714" lon="7.19706">
        <ele>135.22</ele>
        <time>2019-10-13T06:35:31Z</time>
      </trkpt>
      <trkpt lat="43.84504" lon="7.19674">
        <ele>138.09</ele>
        <time>2019-10-13T06:36:04Z</time>
      </trkpt>
      <trkpt lat="43.84282" lon="7.19594">
        <ele>139.682</ele>
        <time>2019-10-13T06:36:37Z</time>
      </trkpt>
      <trkpt lat="43.84064" lon="7.19516">
        <ele>131.157</ele>
        <time>2019-10-13T06:37:10Z</time>
      </trkpt>
      <trkpt lat="43.83881" lon="7.19454">
        <ele>124.287</ele>
        <time>2019-10-13T06:37:40Z</time>
      </trkpt>
      <trkpt lat="43.83804" lon="7.19303">
        <ele>125.458</ele>
        <time>2019-10-13T06:38:13Z</time>
      </trkpt>
      <trkpt lat="43.83833" lon="7.19115">
        <ele>126.883</ele>
        <time>2019-10-13T06:38:46Z</time>
      </trkpt>
      <trkpt lat="43.83697" lon="7.19101">
        <ele>125.888</ele>
        <time>2019-10-13T06:39:19Z</time>
      </trkpt>
      <trkpt lat="43.83609" lon="7.19068">
        <ele>125.746</ele>
        <time>2019-10-13T06:39:55Z</time>
      </trkpt>
      <trkpt lat="43.83437" lon="7.19005">
        <ele>123.881</ele>
        <time>2019-10-13T06:40:28Z</time>
      </trkpt>
      <trkpt lat="43.83269" lon="7.18942">
        <ele>125.136</ele>
        <time>2019-10-13T06:40:58Z</time>
      </trkpt>
      <trkpt lat="43.83087" lon="7.18876">
        <ele>119.887</ele>
        <time>2019-10-13T06:41:31Z</time>
      </trkpt>
      <trkpt lat="43.82907" lon="7.18812">
        <ele>118.98</ele>
        <time>2019-10-13T06:42:04Z</time>
      </trkpt>
      <trkpt lat="43.82723" lon="7.18747">
        <ele>117.511</ele>
        <time>2019-10-13T06:42:37Z</time>
      </trkpt>
      <trkpt lat="43.82535" lon="7.18678">
        <ele>114.95</ele>
        <time>2019-10-13T06:43:10Z</time>
      </trkpt>
      <trkpt lat="43.824" lon="7.18564">
        <ele>114.448</ele>
        <time>2019-10-13T06:43:40Z</time>
      </trkpt>
      <trkpt lat="43.82491" lon="7.184">
        <ele>114.097</ele>
        <time>2019-10-13T06:44:13Z</time>
      </trkpt>
      <trkpt lat="43.82626" lon="7.18304">
        <ele>114.536</ele>
        <time>2019-10-13T06:44:46Z</time>
      </trkpt>
      <trkpt lat="43.82609" lon="7.18209">
        <ele>119.813</ele>
        <time>2019-10-13T06:45:19Z</time>
      </trkpt>
      <trkpt lat="43.82502" lon="7.18222">
        <ele>121.222</ele>
        <time>2019-10-13T06:45:55Z</time>
      </trkpt>
      <trkpt lat="43.82425" lon="7.18271">
        <ele>114.316</ele>
        <time>2019-10-13T06:48:04Z</time>
      </trkpt>
      <trkpt lat="43.82359" lon="7.18304">
        <ele>113.275</ele>
        <time>2019-10-13T06:50:46Z</time>
      </trkpt>
      <trkpt lat="43.82188" lon="7.18371">
        <ele>115.401</ele>
        <time>2019-10-13T06:51:19Z</time>
      </trkpt>
      <trkpt lat="43.82004" lon="7.1841">
        <ele>114.255</ele>
        <time>2019-10-13T06:51:52Z</time>
      </trkpt>
      <trkpt lat="43.81814" lon="7.18434">
        <ele>110.065</ele>
        <time>2019-10-13T06:52:25Z</time>
      </trkpt>
      <trkpt lat="43.81613" lon="7.18454">
        <ele>108.179</ele>
        <time>2019-10-13T06:52:58Z</time>
      </trkpt>
      <trkpt lat="43.81433" lon="7.18487">
        <ele>106.981</ele>
        <time>2019-10-13T06:53:28Z</time>
      </trkpt>
      <trkpt lat="43.81245" lon="7.18566">
        <ele>107.475</ele>
        <time>2019-10-13T06:54:01Z</time>
      </trkpt>
      <trkpt lat="43.81041" lon="7.18713">
        <ele>99.944</ele>
        <time>2019-10-13T06:54:34Z</time>
      </trkpt>
      <trkpt lat="43.80877" lon="7.18884">
        <ele>97.193</ele>
        <time>2019-10-13T06:55:07Z</time>
      </trkpt>
      <trkpt lat="43.80717" lon="7.19068">
        <ele>95.949</ele>
        <time>2019-10-13T06:55:40Z</time>
      </trkpt>
      <trkpt lat="43.80559" lon="7.19245">
        <ele>97.645</ele>
        <time>2019-10-13T06:56:13Z</time>
      </trkpt>
      <trkpt lat="43.80416" lon="7.19417">
        <ele>95.58</ele>
        <time>2019-10-13T06:56:43Z</time>
      </trkpt>
      <trkpt lat="43.80257" lon="7.19601">
        <ele>92.949</ele>
        <time>2019-10-13T06:57:16Z</time>
      </trkpt>
      <trkpt lat="43.80098" lon="7.19778">
        <ele>92.36</ele>
        <time>2019-10-13T06:57:49Z</time>
      </trkpt>
      <trkpt lat="43.79935" lon="7.19962">
        <ele>90.468</ele>
        <time>2019-10-13T06:58:22Z</time>
      </trkpt>
      <trkpt lat="43.79759" lon="7.20155">
        <ele>89.411</ele>
        <time>2019-10-13T06:58:55Z</time>
      </trkpt>
      <trkpt lat="43.79601" lon="7.20336">
        <ele>86.755</ele>
        <time>2019-10-13T06:59:25Z</time>
      </trkpt>
      <trkpt lat="43.79422" lon="7.20541">
        <ele>85.735</ele>
        <time>2019-10-13T06:59:58Z</time>
      </trkpt>
      <trkpt lat="43.79244" lon="7.20746">
        <ele>84.744</ele>
        <time>2019-10-13T07:00:31Z</time>
      </trkpt>
      <trkpt lat="43.79069" lon="7.20949">
        <ele>83.729</ele>
        <time>2019-10-13T07:01:04Z</time>
      </trkpt>
      <trkpt lat="43.78884" lon="7.21138">
        <ele>80.439</ele>
        <time>2019-10-13T07:01:37Z</time>
      </trkpt>
      <trkpt lat="43.78681" lon="7.21281">
        <ele>80.705</ele>
        <time>2019-10-13T07:02:10Z</time>
      </trkpt>
      <trkpt lat="43.78488" lon="7.21372">
        <ele>81.894</ele>
        <time>2019-10-13T07:02:40Z</time>
      </trkpt>
      <trkpt lat="43.78261" lon="7.21421">
        <ele>80.787</ele>
        <time>2019-10-13T07:03:13Z</time>
      </trkpt>
      <trkpt lat="43.78024" lon="7.21421">
        <ele>77.641</ele>
        <time>2019-10-13T07:03:46Z</time>
      </trkpt>
      <trkpt lat="43.77802" lon="7.21366">
        <ele>78.316</ele>
        <time>2019-10-13T07:04:19Z</time>
      </trkpt>
      <trkpt lat="43.77591" lon="7.21259">
        <ele>75.522</ele>
        <time>2019-10-13T07:04:52Z</time>
      </trkpt>
      <trkpt lat="43.7741" lon="7.21127">
        <ele>73.735</ele>
        <time>2019-10-13T07:05:22Z</time>
      </trkpt>
      <trkpt lat="43.7723" lon="7.20945">
        <ele>68.417</ele>
        <time>2019-10-13T07:05:55Z</time>
      </trkpt>
      <trkpt lat="43.77049" lon="7.20785">
        <ele>68.07</ele>
        <time>2019-10-13T07:06:28Z</time>
      </trkpt>
      <trkpt lat="43.76927" lon="7.20671">
        <ele>76.937</ele>
        <time>2019-10-13T07:07:01Z</time>
      </trkpt>
      <trkpt lat="43.76822" lon="7.20499">
        <ele>75.398</ele>
        <time>2019-10-13T07:07:34Z</time>
      </trkpt>
      <trkpt lat="43.7666" lon="7.20296">
        <ele>69.216</ele>
        <time>2019-10-13T07:08:07Z</time>
      </trkpt>
      <trkpt lat="43.76552" lon="7.20175">
        <ele>67.058</ele>
        <time>2019-10-13T07:08:40Z</time>
      </trkpt>
      <trkpt lat="43.76545" lon="7.20235">
        <ele>70.713</ele>
        <time>2019-10-13T07:09:22Z</time>
      </trkpt>
      <trkpt lat="43.76476" lon="7.20358">
        <ele>72.922</ele>
        <time>2019-10-13T07:09:55Z</time>
      </trkpt>
      <trkpt lat="43.76411" lon="7.20476">
        <ele>76.304</ele>
        <time>2019-10-13T07:10:28Z</time>
      </trkpt>
      <trkpt lat="43.76334" lon="7.20435">
        <ele>71.66</ele>
        <time>2019-10-13T07:11:31Z</time>
      </trkpt>
      <trkpt lat="43.76199" lon="7.20294">
        <ele>65.29</ele>
        <time>2019-10-13T07:12:01Z</time>
      </trkpt>
      <trkpt lat="43.76022" lon="7.20112">
        <ele>61.118</ele>
        <time>2019-10-13T07:12:34Z</time>
      </trkpt>
      <trkpt lat="43.75833" lon="7.19921">
        <ele>57.946</ele>
        <time>2019-10-13T07:13:07Z</time>
      </trkpt>
      <trkpt lat="43.75639" lon="7.19745">
        <ele>60.546</ele>
        <time>2019-10-13T07:13:40Z</time>
      </trkpt>
      <trkpt lat="43.75457" lon="7.19554">
        <ele>59.324</ele>
        <time>2019-10-13T07:14:13Z</time>
      </trkpt>
      <trkpt lat="43.75276" lon="7.19365">
        <ele>58.03</ele>
        <time>2019-10-13T07:14:46Z</time>
      </trkpt>
      <trkpt lat="43.751" lon="7.19183">
        <ele>55.626</ele>
        <time>2019-10-13T07:15:16Z</time>
      </trkpt>
      <trkpt lat="43.74895" lon="7.18969">
        <ele>55.46</ele>
        <time>2019-10-13T07:15:49Z</time>
      </trkpt>
      <trkpt lat="43.74687" lon="7.1877">
        <ele>54.538</ele>
        <time>2019-10-13T07:16:22Z</time>
      </trkpt>
      <trkpt lat="43.74462" lon="7.18608">
        <ele>51.246</ele>
        <time>2019-10-13T07:16:55Z</time>
      </trkpt>
      <trkpt lat="43.74217" lon="7.18486">
        <ele>49.149</ele>
        <time>2019-10-13T07:17:28Z</time>
      </trkpt>
      <trkpt lat="43.73991" lon="7.1842">
        <ele>48.468</ele>
        <time>2019-10-13T07:17:58Z</time>
      </trkpt>
      <trkpt lat="43.73725" lon="7.18395">
        <ele>48.621</ele>
        <time>2019-10-13T07:18:31Z</time>
      </trkpt>
      <trkpt lat="43.73464" lon="7.1842">
        <ele>47.704</ele>
        <time>2019-10-13T07:19:04Z</time>
      </trkpt>
      <trkpt lat="43.73204" lon="7.18456">
        <ele>44.923</ele>
        <time>2019-10-13T07:19:37Z</time>
      </trkpt>
      <trkpt lat="43.72942" lon="7.18497">
        <ele>44.658</ele>
        <time>2019-10-13T07:20:10Z</time>
      </trkpt>
      <trkpt lat="43.72678" lon="7.18533">
        <ele>44.877</ele>
        <time>2019-10-13T07:20:43Z</time>
      </trkpt>
      <trkpt lat="43.72447" lon="7.18563">
        <ele>41.8</ele>
        <time>2019-10-13T07:21:13Z</time>
      </trkpt>
      <trkpt lat="43.72238" lon="7.18605">
        <ele>45.567</ele>
        <time>2019-10-13T07:21:46Z</time>
      </trkpt>
      <trkpt lat="43.71989" lon="7.18619">
        <ele>41.792</ele>
        <time>2019-10-13T07:22:19Z</time>
      </trkpt>
      <trkpt lat="43.7172" lon="7.18656">
        <ele>39.708</ele>
        <time>2019-10-13T07:22:52Z</time>
      </trkpt>
      <trkpt lat="43.71462" lon="7.18692">
        <ele>37.954</ele>
        <time>2019-10-13T07:23:25Z</time>
      </trkpt>
      <trkpt lat="43.71236" lon="7.18726">
        <ele>37.7</ele>
        <time>2019-10-13T07:23:55Z</time>
      </trkpt>
      <trkpt lat="43.70945" lon="7.18777">
        <ele>33.527</ele>
        <time>2019-10-13T07:24:28Z</time>
      </trkpt>
      <trkpt lat="43.70674" lon="7.1881">
        <ele>32.266</ele>
        <time>2019-10-13T07:25:01Z</time>
      </trkpt>
      <trkpt lat="43.70401" lon="7.18893">
        <ele>29.957</ele>
        <time>2019-10-13T07:25:34Z</time>
      </trkpt>
      <trkpt lat="43.70172" lon="7.18873">
        <ele>29.097</ele>
        <time>2019-10-13T07:26:07Z</time>
      </trkpt>
      <trkpt lat="43.69953" lon="7.18946">
        <ele>28.502</ele>
        <time>2019-10-13T07:26:40Z</time>
      </trkpt>
      <trkpt lat="43.69754" lon="7.19046">
        <ele>30.377</ele>
        <time>2019-10-13T07:27:10Z</time>
      </trkpt>
      <trkpt lat="43.69584" lon="7.19186">
        <ele>26.012</ele>
        <time>2019-10-13T07:27:43Z</time>
      </trkpt>
      <trkpt lat="43.69571" lon="7.1919">
        <ele>26.093</ele>
        <time>2019-10-13T07:28:16Z</time>
      </trkpt>
      <trkpt lat="43.69365" lon="7.19367">
        <ele>27.013</ele>
        <time>2019-10-13T07:28:49Z</time>
      </trkpt>
      <trkpt lat="43.69166" lon="7.19524">
        <ele>26.342</ele>
        <time>2019-10-13T07:29:22Z</time>
      </trkpt>
      <trkpt lat="43.69087" lon="7.19575">
        <ele>27.363</ele>
        <time>2019-10-13T07:30:52Z</time>
      </trkpt>
      <trkpt lat="43.69141" lon="7.19735">
        <ele>27.121</ele>
        <time>2019-10-13T07:31:25Z</time>
      </trkpt>
      <trkpt lat="43.6922" lon="7.19907">
        <ele>33.878</ele>
        <time>2019-10-13T07:31:58Z</time>
      </trkpt>
      <trkpt lat="43.69112" lon="7.19995">
        <ele>30.851</ele>
        <time>2019-10-13T07:32:31Z</time>
      </trkpt>
      <trkpt lat="43.68959" lon="7.20072">
        <ele>26.64</ele>
        <time>2019-10-13T07:33:04Z</time>
      </trkpt>
      <trkpt lat="43.68801" lon="7.20135">
        <ele>42.352</ele>
        <time>2019-10-13T07:33:37Z</time>
      </trkpt>
      <trkpt lat="43.68627" lon="7.2019">
        <ele>52.589</ele>
        <time>2019-10-13T07:34:07Z</time>
      </trkpt>
      <trkpt lat="43.68462" lon="7.20267">
        <ele>61.308</ele>
        <time>2019-10-13T07:34:40Z</time>
      </trkpt>
      <trkpt lat="43.68295" lon="7.20318">
        <ele>51.895</ele>
        <time>2019-10-13T07:35:13Z</time>
      </trkpt>
      <trkpt lat="43.6812" lon="7.2036">
        <ele>25.384</ele>
        <time>2019-10-13T07:35:46Z</time>
      </trkpt>
      <trkpt lat="43.67946" lon="7.20436">
        <ele>21.373</ele>
        <time>2019-10-13T07:36:19Z</time>
      </trkpt>
      <trkpt lat="43.67812" lon="7.20491">
        <ele>18.727</ele>
        <time>2019-10-13T07:36:49Z</time>
      </trkpt>
      <trkpt lat="43.67645" lon="7.20607">
        <ele>20.069</ele>
        <time>2019-10-13T07:37:22Z</time>
      </trkpt>
      <trkpt lat="43.67538" lon="7.20687">
        <ele>24.436</ele>
        <time>2019-10-13T07:37:55Z</time>
      </trkpt>
      <trkpt lat="43.67522" lon="7.20706">
        <ele>27.847</ele>
        <time>2019-10-13T07:48:01Z</time>
      </trkpt>
      <trkpt lat="43.67381" lon="7.20821">
        <ele>30.21</ele>
        <time>2019-10-13T07:48:34Z</time>
      </trkpt>
      <trkpt lat="43.67192" lon="7.20969">
        <ele>22.807</ele>
        <time>2019-10-13T07:49:07Z</time>
      </trkpt>
      <trkpt lat="43.67121" lon="7.2098">
        <ele>14.492</ele>
        <time>2019-10-13T07:49:40Z</time>
      </trkpt>
      <trkpt lat="43.67052" lon="7.21125">
        <ele>12.803</ele>
        <time>2019-10-13T07:50:13Z</time>
      </trkpt>
      <trkpt lat="43.67016" lon="7.21395">
        <ele>6.255</ele>
        <time>2019-10-13T07:50:46Z</time>
      </trkpt>
      <trkpt lat="43.66984" lon="7.21671">
        <ele>22.555</ele>
        <time>2019-10-13T07:51:19Z</time>
      </trkpt>
      <trkpt lat="43.66952" lon="7.21918">
        <ele>19.19</ele>
        <time>2019-10-13T07:51:52Z</time>
      </trkpt>
      <trkpt lat="43.66914" lon="7.22013">
        <ele>16.643</ele>
        <time>2019-10-13T07:52:55Z</time>
      </trkpt>
      <trkpt lat="43.66876" lon="7.22096">
        <ele>20.554</ele>
        <time>2019-10-13T07:54:07Z</time>
      </trkpt>
      <trkpt lat="43.66939" lon="7.22224">
        <ele>16.009</ele>
        <time>2019-10-13T07:54:40Z</time>
      </trkpt>
      <trkpt lat="43.67073" lon="7.22408">
        <ele>12.056</ele>
        <time>2019-10-13T07:55:13Z</time>
      </trkpt>
      <trkpt lat="43.67208" lon="7.22582">
        <ele>10.699</ele>
        <time>2019-10-13T07:55:46Z</time>
      </trkpt>
      <trkpt lat="43.67371" lon="7.2272">
        <ele>7.411</ele>
        <time>2019-10-13T07:56:19Z</time>
      </trkpt>
      <trkpt lat="43.67497" lon="7.22811">
        <ele>11.048</ele>
        <time>2019-10-13T07:56:49Z</time>
      </trkpt>
      <trkpt lat="43.67654" lon="7.22916">
        <ele>8.823</ele>
        <time>2019-10-13T07:57:22Z</time>
      </trkpt>
      <trkpt lat="43.67799" lon="7.22953">
        <ele>9.966</ele>
        <time>2019-10-13T07:57:55Z</time>
      </trkpt>
      <trkpt lat="43.67938" lon="7.23053">
        <ele>13.533</ele>
        <time>2019-10-13T07:58:28Z</time>
      </trkpt>
      <trkpt lat="43.68078" lon="7.23164">
        <ele>13.867</ele>
        <time>2019-10-13T07:59:01Z</time>
      </trkpt>
      <trkpt lat="43.6821" lon="7.23306">
        <ele>12.088</ele>
        <time>2019-10-13T07:59:31Z</time>
      </trkpt>
      <trkpt lat="43.6836" lon="7.23469">
        <ele>12.678</ele>
        <time>2019-10-13T08:00:04Z</time>
      </trkpt>
      <trkpt lat="43.68497" lon="7.23619">
        <ele>14.602</ele>
        <time>2019-10-13T08:00:37Z</time>
      </trkpt>
      <trkpt lat="43.68618" lon="7.23765">
        <ele>11.438</ele>
        <time>2019-10-13T08:01:10Z</time>
      </trkpt>
      <trkpt lat="43.68748" lon="7.23949">
        <ele>10.939</ele>
        <time>2019-10-13T08:01:43Z</time>
      </trkpt>
      <trkpt lat="43.68862" lon="7.24152">
        <ele>8.657</ele>
        <time>2019-10-13T08:02:16Z</time>
      </trkpt>
      <trkpt lat="43.68962" lon="7.24334">
        <ele>10.968</ele>
        <time>2019-10-13T08:02:46Z</time>
      </trkpt>
      <trkpt lat="43.69037" lon="7.24523">
        <ele>14.02</ele>
        <time>2019-10-13T08:03:19Z</time>
      </trkpt>
      <trkpt lat="43.69113" lon="7.24743">
        <ele>11.459</ele>
        <time>2019-10-13T08:03:52Z</time>
      </trkpt>
      <trkpt lat="43.69189" lon="7.24964">
        <ele>9.781</ele>
        <time>2019-10-13T08:04:25Z</time>
      </trkpt>
      <trkpt lat="43.6927" lon="7.25182">
        <ele>11.733</ele>
        <time>2019-10-13T08:04:58Z</time>
      </trkpt>
      <trkpt lat="43.69291" lon="7.2533">
        <ele>12.821</ele>
        <time>2019-10-13T08:05:28Z</time>
      </trkpt>
      <trkpt lat="43.69266" lon="7.25208">
        <ele>10.068</ele>
        <time>2019-10-13T08:06:01Z</time>
      </trkpt>
      <trkpt lat="43.69305" lon="7.25348">
        <ele>8.697</ele>
        <time>2019-10-13T08:42:34Z</time>
      </trkpt>
      <trkpt lat="43.69343" lon="7.2554">
        <ele>7.097</ele>
        <time>2019-10-13T08:43:07Z</time>
      </trkpt>
      <trkpt lat="43.69387" lon="7.25728">
        <ele>7.082</ele>
        <time>2019-10-13T08:43:40Z</time>
      </trkpt>
      <trkpt lat="43.69424" lon="7.25908">
        <ele>9.042</ele>
        <time>2019-10-13T08:44:13Z</time>
      </trkpt>
      <trkpt lat="43.69457" lon="7.26111">
        <ele>9.159</ele>
        <time>2019-10-13T08:44:43Z</time>
      </trkpt>
      <trkpt lat="43.69472" lon="7.26311">
        <ele>12.185</ele>
        <time>2019-10-13T08:45:16Z</time>
      </trkpt>
      <trkpt lat="43.6948" lon="7.26524">
        <ele>11.962</ele>
        <time>2019-10-13T08:45:49Z</time>
      </trkpt>
      <trkpt lat="43.69482" lon="7.26605">
        <ele>9.018</ele>
        <time>2019-10-13T08:46:25Z</time>
      </trkpt>
      <trkpt lat="43.69484" lon="7.26635">
        <ele>13.227</ele>
        <time>2019-10-13T08:47:49Z</time>
      </trkpt>
      <trkpt lat="43.69485" lon="7.26692">
        <ele>24.574</ele>
        <time>2019-10-13T08:48:19Z</time>
      </trkpt>
      <trkpt lat="43.69497" lon="7.2685">
        <ele>13.278</ele>
        <time>2019-10-13T08:48:52Z</time>
      </trkpt>
      <trkpt lat="43.69506" lon="7.26996">
        <ele>8.783</ele>
        <time>2019-10-13T08:49:31Z</time>
      </trkpt>
      <trkpt lat="43.69501" lon="7.27182">
        <ele>14.912</ele>
        <time>2019-10-13T08:50:04Z</time>
      </trkpt>
      <trkpt lat="43.69504" lon="7.2741">
        <ele>13.938</ele>
        <time>2019-10-13T08:50:37Z</time>
      </trkpt>
      <trkpt lat="43.69493" lon="7.27632">
        <ele>9.909</ele>
        <time>2019-10-13T08:51:10Z</time>
      </trkpt>
      <trkpt lat="43.69472" lon="7.27809">
        <ele>9.707</ele>
        <time>2019-10-13T08:51:40Z</time>
      </trkpt>
      <trkpt lat="43.69387" lon="7.27913">
        <ele>20.052</ele>
        <time>2019-10-13T08:52:13Z</time>
      </trkpt>
      <trkpt lat="43.69322" lon="7.28049">
        <ele>23.601</ele>
        <time>2019-10-13T08:52:46Z</time>
      </trkpt>
      <trkpt lat="43.69334" lon="7.28215">
        <ele>17.242</ele>
        <time>2019-10-13T08:53:19Z</time>
      </trkpt>
      <trkpt lat="43.69417" lon="7.28295">
        <ele>16.266</ele>
        <time>2019-10-13T08:53:55Z</time>
      </trkpt>
      <trkpt lat="43.69556" lon="7.28342">
        <ele>13.081</ele>
        <time>2019-10-13T08:54:25Z</time>
      </trkpt>
      <trkpt lat="43.69668" lon="7.28359">
        <ele>22.648</ele>
        <time>2019-10-13T08:55:01Z</time>
      </trkpt>
      <trkpt lat="43.6975" lon="7.28373">
        <ele>27.767</ele>
        <time>2019-10-13T08:55:34Z</time>
      </trkpt>
      <trkpt lat="43.69851" lon="7.28391">
        <ele>27.73</ele>
        <time>2019-10-13T08:56:07Z</time>
      </trkpt>
      <trkpt lat="43.69838" lon="7.28572">
        <ele>35.581</ele>
        <time>2019-10-13T08:56:40Z</time>
      </trkpt>
      <trkpt lat="43.69777" lon="7.28627">
        <ele>28.247</ele>
        <time>2019-10-13T08:57:13Z</time>
      </trkpt>
      <trkpt lat="43.69685" lon="7.28615">
        <ele>19.735</ele>
        <time>2019-10-13T08:57:46Z</time>
      </trkpt>
      <trkpt lat="43.69607" lon="7.28589">
        <ele>8.682</ele>
        <time>2019-10-13T08:58:37Z</time>
      </trkpt>
      <trkpt lat="43.69523" lon="7.28571">
        <ele>9.792</ele>
        <time>2019-10-13T08:59:16Z</time>
      </trkpt>
      <trkpt lat="43.69464" lon="7.28582">
        <ele>5.652</ele>
        <time>2019-10-13T08:59:52Z</time>
      </trkpt>
      <trkpt lat="43.69449" lon="7.28577">
        <ele>10.297</ele>
        <time>2019-10-13T09:02:25Z</time>
      </trkpt>
      <trkpt lat="43.6944" lon="7.28578">
        <ele>14.594</ele>
        <time>2019-10-13T09:08:46Z</time>
      </trkpt>
      <trkpt lat="43.6944" lon="7.28578">
        <ele>15.256</ele>
        <time>2019-10-13T09:10:55Z</time>
      </trkpt>
      <trkpt lat="43.6942" lon="7.28599">
        <ele>0.136</ele>
        <time>2019-10-13T09:12:55Z</time>
      </trkpt>
      <trkpt lat="43.69422" lon="7.28662">
        <ele>1.001</ele>
        <time>2019-10-13T09:14:16Z</time>
      </trkpt>
      <trkpt lat="43.69475" lon="7.28639">
        <ele>1.712</ele>
        <time>2019-10-13T09:15:28Z</time>
      </trkpt>
      <trkpt lat="43.69419" lon="7.28662">
        <ele>0.14</ele>
        <time>2019-10-13T09:17:22Z</time>
      </trkpt>
      <trkpt lat="43.694" lon="7.2876">
        <ele>2.488</ele>
        <time>2019-10-13T09:17:55Z</time>
      </trkpt>
      <trkpt lat="43.69361" lon="7.2888">
        <ele>11.704</ele>
        <time>2019-10-13T09:18:28Z</time>
      </trkpt>
      <trkpt lat="43.6934" lon="7.28909">
        <ele>6.216</ele>
        <time>2019-10-13T09:19:13Z</time>
      </trkpt>
      <trkpt lat="43.69351" lon="7.289">
        <ele>3.772</ele>
        <time>2019-10-13T09:21:01Z</time>
      </trkpt>
      <trkpt lat="43.6937" lon="7.28884">
        <ele>3.384</ele>
        <time>2019-10-13T09:27:10Z</time>
      </trkpt>
      <trkpt lat="43.69363" lon="7.28881">
        <ele>0.994</ele>
        <time>2019-10-13T09:45:19.001Z</time>
      </trkpt>
      <trkpt lat="43.69372" lon="7.28884">
        <ele>1.047</ele>
        <time>2019-10-13T09:47:16Z</time>
      </trkpt>
      <trkpt lat="43.69366" lon="7.28874">
        <ele>13</ele>
        <time>2019-10-13T09:55:10.001Z</time>
      </trkpt>
      <trkpt lat="43.69402" lon="7.28906">
        <ele>15.7</ele>
        <time>2019-10-13T09:59:56.001Z</time>
      </trkpt>
      <trkpt lat="43.69375" lon="7.28889">
        <ele>13.1</ele>
        <time>2019-10-13T10:00:53.001Z</time>
      </trkpt>
      <trkpt lat="43.69364" lon="7.2887">
        <ele>7.888</ele>
        <time>2019-10-13T10:06:43.001Z</time>
      </trkpt>
      <trkpt lat="43.69371" lon="7.28877">
        <ele>5.4</ele>
        <time>2019-10-13T10:24:01.001Z</time>
      </trkpt>
      <trkpt lat="43.69371" lon="7.2888">
        <ele>4.348</ele>
        <time>2019-10-13T10:31:10.001Z</time>
      </trkpt>
      <trkpt lat="43.69378" lon="7.28879">
        <ele>2.07</ele>
        <time>2019-10-13T10:32:10.001Z</time>
      </trkpt>
      <trkpt lat="43.6937" lon="7.28881">
        <ele>4.145</ele>
        <time>2019-10-13T10:36:37.001Z</time>
      </trkpt>
      <trkpt lat="43.69369" lon="7.28877">
        <ele>3.925</ele>
        <time>2019-10-13T10:38:04.001Z</time>
      </trkpt>
      <trkpt lat="43.69391" lon="7.28813">
        <ele>5.61</ele>
        <time>2019-10-13T10:39:49.001Z</time>
      </trkpt>
      <trkpt lat="43.6941" lon="7.28725">
        <ele>5.498</ele>
        <time>2019-10-13T10:40:58.001Z</time>
      </trkpt>
      <trkpt lat="43.6942" lon="7.28635">
        <ele>7.514</ele>
        <time>2019-10-13T10:42:04.001Z</time>
      </trkpt>
      <trkpt lat="43.69428" lon="7.28568">
        <ele>7.294</ele>
        <time>2019-10-13T10:43:13.001Z</time>
      </trkpt>
      <trkpt lat="43.69432" lon="7.28577">
        <ele>7.294</ele>
        <time>2019-10-13T10:49:25.001Z</time>
      </trkpt>
      <trkpt lat="43.69429" lon="7.28576">
        <ele>7.05</ele>
        <time>2019-10-13T11:12:43.001Z</time>
      </trkpt>
      <trkpt lat="43.6943" lon="7.28575">
        <ele>7.357</ele>
        <time>2019-10-13T11:16:49.001Z</time>
      </trkpt>
      <trkpt lat="43.69407" lon="7.28568">
        <ele>4.648</ele>
        <time>2019-10-13T11:18:22.001Z</time>
      </trkpt>
      <trkpt lat="43.69381" lon="7.28555">
        <ele>3.47</ele>
        <time>2019-10-13T11:21:13.001Z</time>
      </trkpt>
      <trkpt lat="43.69379" lon="7.2856">
        <ele>3.889</ele>
        <time>2019-10-13T11:22:13.001Z</time>
      </trkpt>
      <trkpt lat="43.69379" lon="7.28557">
        <ele>1.513</ele>
        <time>2019-10-13T11:26:31.001Z</time>
      </trkpt>
      <trkpt lat="43.69368" lon="7.28628">
        <ele>3.6</ele>
        <time>2019-10-13T11:27:22.001Z</time>
      </trkpt>
      <trkpt lat="43.6934" lon="7.28659">
        <ele>15.991</ele>
        <time>2019-10-13T11:28:52.001Z</time>
      </trkpt>
      <trkpt lat="43.69411" lon="7.28685">
        <ele>7.6</ele>
        <time>2019-10-13T11:33:22.001Z</time>
      </trkpt>
      <trkpt lat="43.69381" lon="7.28693">
        <ele>8.8</ele>
        <time>2019-10-13T11:35:30.001Z</time>
      </trkpt>
      <trkpt lat="43.6923" lon="7.28702">
        <time>2019-10-13T11:42:51.001Z</time>
      </trkpt>
      <trkpt lat="43.69171" lon="7.28785">
        <ele>6</ele>
        <time>2019-10-13T11:43:33.001Z</time>
      </trkpt>
      <trkpt lat="43.6909" lon="7.28879">
        <ele>2</ele>
        <time>2019-10-13T11:44:06.001Z</time>
      </trkpt>
      <trkpt lat="43.69" lon="7.2899">
        <time>2019-10-13T11:44:39.001Z</time>
      </trkpt>
      <trkpt lat="43.68902" lon="7.29033">
        <time>2019-10-13T11:45:12.001Z</time>
      </trkpt>
      <trkpt lat="43.68786" lon="7.29004">
        <time>2019-10-13T11:45:45.001Z</time>
      </trkpt>
      <trkpt lat="43.68669" lon="7.28928">
        <time>2019-10-13T11:46:18.001Z</time>
      </trkpt>
      <trkpt lat="43.68551" lon="7.28854">
        <time>2019-10-13T11:46:48.001Z</time>
      </trkpt>
      <trkpt lat="43.6841" lon="7.2877">
        <time>2019-10-13T11:47:21.001Z</time>
      </trkpt>
      <trkpt lat="43.68266" lon="7.2869">
        <time>2019-10-13T11:47:54.001Z</time>
      </trkpt>
      <trkpt lat="43.68136" lon="7.28617">
        <time>2019-10-13T11:48:27.001Z</time>
      </trkpt>
      <trkpt lat="43.67985" lon="7.28552">
        <time>2019-10-13T11:49:00.001Z</time>
      </trkpt>
      <trkpt lat="43.67806" lon="7.28524">
        <time>2019-10-13T11:49:33.001Z</time>
      </trkpt>
      <trkpt lat="43.67649" lon="7.28574">
        <time>2019-10-13T11:50:03.001Z</time>
      </trkpt>
      <trkpt lat="43.67461" lon="7.28688">
        <time>2019-10-13T11:50:36.001Z</time>
      </trkpt>
      <trkpt lat="43.67256" lon="7.28868">
        <time>2019-10-13T11:51:09.001Z</time>
      </trkpt>
      <trkpt lat="43.67075" lon="7.29077">
        <time>2019-10-13T11:51:42.001Z</time>
      </trkpt>
      <trkpt lat="43.66881" lon="7.29356">
        <time>2019-10-13T11:52:15.001Z</time>
      </trkpt>
      <trkpt lat="43.66737" lon="7.29631">
        <time>2019-10-13T11:52:45.001Z</time>
      </trkpt>
      <trkpt lat="43.66604" lon="7.29954">
        <time>2019-10-13T11:53:18.001Z</time>
      </trkpt>
      <trkpt lat="43.66473" lon="7.30322">
        <time>2019-10-13T11:53:51.001Z</time>
      </trkpt>
      <trkpt lat="43.66351" lon="7.30658">
        <time>2019-10-13T11:54:24.001Z</time>
      </trkpt>
      <trkpt lat="43.66228" lon="7.31017">
        <time>2019-10-13T11:54:57.001Z</time>
      </trkpt>
      <trkpt lat="43.66093" lon="7.31374">
        <time>2019-10-13T11:55:30.001Z</time>
      </trkpt>
      <trkpt lat="43.65986" lon="7.317">
        <time>2019-10-13T11:56:00.001Z</time>
      </trkpt>
      <trkpt lat="43.65853" lon="7.32058">
        <time>2019-10-13T11:56:33.001Z</time>
      </trkpt>
      <trkpt lat="43.65735" lon="7.32424">
        <time>2019-10-13T11:57:06.001Z</time>
      </trkpt>
      <trkpt lat="43.65607" lon="7.3279">
        <time>2019-10-13T11:57:39.001Z</time>
      </trkpt>
      <trkpt lat="43.65491" lon="7.33138">
        <ele>0.287</ele>
        <time>2019-10-13T11:58:12.001Z</time>
      </trkpt>
      <trkpt lat="43.65369" lon="7.33482">
        <time>2019-10-13T11:58:42.001Z</time>
      </trkpt>
      <trkpt lat="43.65245" lon="7.3384">
        <time>2019-10-13T11:59:15.001Z</time>
      </trkpt>
      <trkpt lat="43.65113" lon="7.34205">
        <time>2019-10-13T11:59:48.001Z</time>
      </trkpt>
      <trkpt lat="43.64989" lon="7.34555">
        <time>2019-10-13T12:00:21.001Z</time>
      </trkpt>
      <trkpt lat="43.64871" lon="7.34912">
        <time>2019-10-13T12:00:54.001Z</time>
      </trkpt>
      <trkpt lat="43.64748" lon="7.3526">
        <time>2019-10-13T12:01:27.001Z</time>
      </trkpt>
      <trkpt lat="43.64648" lon="7.35596">
        <time>2019-10-13T12:01:57.001Z</time>
      </trkpt>
      <trkpt lat="43.64526" lon="7.35945">
        <time>2019-10-13T12:02:30.001Z</time>
      </trkpt>
      <trkpt lat="43.64384" lon="7.36303">
        <time>2019-10-13T12:03:03.001Z</time>
      </trkpt>
      <trkpt lat="43.64268" lon="7.36643">
        <ele>2.692</ele>
        <time>2019-10-13T12:03:36.001Z</time>
      </trkpt>
      <trkpt lat="43.64124" lon="7.3702">
        <ele>0.66</ele>
        <time>2019-10-13T12:04:09.001Z</time>
      </trkpt>
      <trkpt lat="43.64007" lon="7.37338">
        <time>2019-10-13T12:04:39.001Z</time>
      </trkpt>
      <trkpt lat="43.63885" lon="7.37679">
        <time>2019-10-13T12:05:12.001Z</time>
      </trkpt>
      <trkpt lat="43.63751" lon="7.38039">
        <time>2019-10-13T12:05:45.001Z</time>
      </trkpt>
      <trkpt lat="43.63619" lon="7.38387">
        <time>2019-10-13T12:06:18.001Z</time>
      </trkpt>
      <trkpt lat="43.63504" lon="7.38732">
        <time>2019-10-13T12:06:51.001Z</time>
      </trkpt>
      <trkpt lat="43.63366" lon="7.39094">
        <time>2019-10-13T12:07:24.001Z</time>
      </trkpt>
      <trkpt lat="43.63253" lon="7.39394">
        <time>2019-10-13T12:07:54.001Z</time>
      </trkpt>
      <trkpt lat="43.63133" lon="7.39745">
        <ele>0.69</ele>
        <time>2019-10-13T12:08:27.001Z</time>
      </trkpt>
      <trkpt lat="43.62999" lon="7.40097">
        <ele>6.746</ele>
        <time>2019-10-13T12:09:00.001Z</time>
      </trkpt>
      <trkpt lat="43.62877" lon="7.40452">
        <ele>9.146</ele>
        <time>2019-10-13T12:09:33.001Z</time>
      </trkpt>
      <trkpt lat="43.62751" lon="7.40795">
        <ele>3.719</ele>
        <time>2019-10-13T12:10:06.001Z</time>
      </trkpt>
      <trkpt lat="43.62635" lon="7.41111">
        <time>2019-10-13T12:10:36.001Z</time>
      </trkpt>
      <trkpt lat="43.62516" lon="7.41444">
        <time>2019-10-13T12:11:09.001Z</time>
      </trkpt>
      <trkpt lat="43.62391" lon="7.41773">
        <time>2019-10-13T12:11:42.001Z</time>
      </trkpt>
      <trkpt lat="43.62257" lon="7.42127">
        <time>2019-10-13T12:12:15.001Z</time>
      </trkpt>
      <trkpt lat="43.62131" lon="7.42467">
        <time>2019-10-13T12:12:48.001Z</time>
      </trkpt>
      <trkpt lat="43.62001" lon="7.42801">
        <time>2019-10-13T12:13:21.001Z</time>
      </trkpt>
      <trkpt lat="43.61878" lon="7.4311">
        <time>2019-10-13T12:13:51.001Z</time>
      </trkpt>
      <trkpt lat="43.61729" lon="7.43448">
        <time>2019-10-13T12:14:24.001Z</time>
      </trkpt>
      <trkpt lat="43.61588" lon="7.43792">
        <time>2019-10-13T12:14:57.001Z</time>
      </trkpt>
      <trkpt lat="43.6146" lon="7.44114">
        <ele>2.491</ele>
        <time>2019-10-13T12:15:30.001Z</time>
      </trkpt>
      <trkpt lat="43.61332" lon="7.44447">
        <ele>17.779</ele>
        <time>2019-10-13T12:16:03.001Z</time>
      </trkpt>
      <trkpt lat="43.61187" lon="7.44768">
        <ele>13.232</ele>
        <time>2019-10-13T12:16:33.001Z</time>
      </trkpt>
      <trkpt lat="43.61053" lon="7.4509">
        <ele>12.865</ele>
        <time>2019-10-13T12:17:06.001Z</time>
      </trkpt>
      <trkpt lat="43.60912" lon="7.45422">
        <ele>5.224</ele>
        <time>2019-10-13T12:17:39.001Z</time>
      </trkpt>
      <trkpt lat="43.60776" lon="7.45751">
        <time>2019-10-13T12:18:12.001Z</time>
      </trkpt>
      <trkpt lat="43.6063" lon="7.46075">
        <time>2019-10-13T12:18:45.001Z</time>
      </trkpt>
      <trkpt lat="43.60475" lon="7.46412">
        <time>2019-10-13T12:19:18.001Z</time>
      </trkpt>
      <trkpt lat="43.60352" lon="7.46711">
        <time>2019-10-13T12:19:48.001Z</time>
      </trkpt>
      <trkpt lat="43.60211" lon="7.47042">
        <time>2019-10-13T12:20:21.001Z</time>
      </trkpt>
      <trkpt lat="43.60069" lon="7.47384">
        <time>2019-10-13T12:20:54.001Z</time>
      </trkpt>
      <trkpt lat="43.59931" lon="7.47715">
        <time>2019-10-13T12:21:27.001Z</time>
      </trkpt>
      <trkpt lat="43.59808" lon="7.4806">
        <ele>3.768</ele>
        <time>2019-10-13T12:22:00.001Z</time>
      </trkpt>
      <trkpt lat="43.59705" lon="7.48375">
        <time>2019-10-13T12:22:30.001Z</time>
      </trkpt>
      <trkpt lat="43.59593" lon="7.48731">
        <time>2019-10-13T12:23:03.001Z</time>
      </trkpt>
      <trkpt lat="43.59489" lon="7.49078">
        <time>2019-10-13T12:23:36.001Z</time>
      </trkpt>
      <trkpt lat="43.59383" lon="7.49442">
        <time>2019-10-13T12:24:09.001Z</time>
      </trkpt>
      <trkpt lat="43.59279" lon="7.49789">
        <time>2019-10-13T12:24:42.001Z</time>
      </trkpt>
      <trkpt lat="43.59177" lon="7.50149">
        <time>2019-10-13T12:25:15.001Z</time>
      </trkpt>
      <trkpt lat="43.59077" lon="7.50474">
        <time>2019-10-13T12:25:45.001Z</time>
      </trkpt>
      <trkpt lat="43.58973" lon="7.50835">
        <time>2019-10-13T12:26:18.001Z</time>
      </trkpt>
      <trkpt lat="43.58871" lon="7.51192">
        <time>2019-10-13T12:26:51.001Z</time>
      </trkpt>
      <trkpt lat="43.58762" lon="7.5155">
        <time>2019-10-13T12:27:24.001Z</time>
      </trkpt>
      <trkpt lat="43.58655" lon="7.519">
        <time>2019-10-13T12:27:57.001Z</time>
      </trkpt>
      <trkpt lat="43.58556" lon="7.52215">
        <time>2019-10-13T12:28:27.001Z</time>
      </trkpt>
      <trkpt lat="43.58442" lon="7.52548">
        <time>2019-10-13T12:29:00.001Z</time>
      </trkpt>
      <trkpt lat="43.58353" lon="7.52898">
        <time>2019-10-13T12:29:33.001Z</time>
      </trkpt>
      <trkpt lat="43.58268" lon="7.53252">
        <time>2019-10-13T12:30:06.001Z</time>
      </trkpt>
      <trkpt lat="43.58188" lon="7.536">
        <time>2019-10-13T12:30:39.001Z</time>
      </trkpt>
      <trkpt lat="43.58096" lon="7.53972">
        <time>2019-10-13T12:31:12.001Z</time>
      </trkpt>
      <trkpt lat="43.58011" lon="7.54286">
        <ele>5.494</ele>
        <time>2019-10-13T12:31:42.001Z</time>
      </trkpt>
      <trkpt lat="43.57925" lon="7.54662">
        <ele>12.366</ele>
        <time>2019-10-13T12:32:15.001Z</time>
      </trkpt>
      <trkpt lat="43.57836" lon="7.55022">
        <ele>19.345</ele>
        <time>2019-10-13T12:32:48.001Z</time>
      </trkpt>
      <trkpt lat="43.57743" lon="7.55384">
        <ele>13.967</ele>
        <time>2019-10-13T12:33:21.001Z</time>
      </trkpt>
      <trkpt lat="43.57654" lon="7.55739">
        <ele>15.962</ele>
        <time>2019-10-13T12:33:54.001Z</time>
      </trkpt>
      <trkpt lat="43.57571" lon="7.56081">
        <ele>30.195</ele>
        <time>2019-10-13T12:34:24.001Z</time>
      </trkpt>
      <trkpt lat="43.57479" lon="7.56418">
        <ele>28.591</ele>
        <time>2019-10-13T12:34:57.001Z</time>
      </trkpt>
      <trkpt lat="43.57391" lon="7.56761">
        <ele>25.152</ele>
        <time>2019-10-13T12:35:30.001Z</time>
      </trkpt>
      <trkpt lat="43.57316" lon="7.57128">
        <ele>20.343</ele>
        <time>2019-10-13T12:36:03.001Z</time>
      </trkpt>
      <trkpt lat="43.57221" lon="7.57484">
        <ele>14.758</ele>
        <time>2019-10-13T12:36:36.001Z</time>
      </trkpt>
      <trkpt lat="43.57112" lon="7.57828">
        <ele>9.556</ele>
        <time>2019-10-13T12:37:09.001Z</time>
      </trkpt>
      <trkpt lat="43.57031" lon="7.5817">
        <ele>11.278</ele>
        <time>2019-10-13T12:37:39.001Z</time>
      </trkpt>
      <trkpt lat="43.56931" lon="7.58531">
        <time>2019-10-13T12:38:12.001Z</time>
      </trkpt>
      <trkpt lat="43.56846" lon="7.58896">
        <time>2019-10-13T12:38:45.001Z</time>
      </trkpt>
      <trkpt lat="43.56748" lon="7.59257">
        <time>2019-10-13T12:39:18.001Z</time>
      </trkpt>
      <trkpt lat="43.56659" lon="7.5961">
        <time>2019-10-13T12:39:51.001Z</time>
      </trkpt>
      <trkpt lat="43.56572" lon="7.59951">
        <time>2019-10-13T12:40:21.001Z</time>
      </trkpt>
      <trkpt lat="43.56482" lon="7.60307">
        <time>2019-10-13T12:40:54.001Z</time>
      </trkpt>
      <trkpt lat="43.56387" lon="7.60656">
        <time>2019-10-13T12:41:27.001Z</time>
      </trkpt>
      <trkpt lat="43.563" lon="7.61029">
        <time>2019-10-13T12:42:00.001Z</time>
      </trkpt>
      <trkpt lat="43.56203" lon="7.61394">
        <time>2019-10-13T12:42:33.001Z</time>
      </trkpt>
      <trkpt lat="43.56126" lon="7.61735">
        <time>2019-10-13T12:43:06.001Z</time>
      </trkpt>
      <trkpt lat="43.56042" lon="7.62076">
        <time>2019-10-13T12:43:36.001Z</time>
      </trkpt>
      <trkpt lat="43.55945" lon="7.62438">
        <time>2019-10-13T12:44:09.001Z</time>
      </trkpt>
      <trkpt lat="43.55861" lon="7.62801">
        <ele>6.91</ele>
        <time>2019-10-13T12:44:42.001Z</time>
      </trkpt>
      <trkpt lat="43.55773" lon="7.63169">
        <ele>11.433</ele>
        <time>2019-10-13T12:45:15.001Z</time>
      </trkpt>
      <trkpt lat="43.55686" lon="7.63523">
        <ele>15.236</ele>
        <time>2019-10-13T12:45:48.001Z</time>
      </trkpt>
      <trkpt lat="43.55607" lon="7.63855">
        <ele>18.154</ele>
        <time>2019-10-13T12:46:18.001Z</time>
      </trkpt>
      <trkpt lat="43.55509" lon="7.6421">
        <ele>15.299</ele>
        <time>2019-10-13T12:46:51.001Z</time>
      </trkpt>
      <trkpt lat="43.5543" lon="7.64567">
        <ele>6.186</ele>
        <time>2019-10-13T12:47:24.001Z</time>
      </trkpt>
      <trkpt lat="43.55325" lon="7.64941">
        <time>2019-10-13T12:47:57.001Z</time>
      </trkpt>
      <trkpt lat="43.55232" lon="7.65299">
        <time>2019-10-13T12:48:30.001Z</time>
      </trkpt>
      <trkpt lat="43.55142" lon="7.6565">
        <time>2019-10-13T12:49:03.001Z</time>
      </trkpt>
      <trkpt lat="43.55059" lon="7.65986">
        <time>2019-10-13T12:49:33.001Z</time>
      </trkpt>
      <trkpt lat="43.54953" lon="7.66386">
        <time>2019-10-13T12:50:06.001Z</time>
      </trkpt>
      <trkpt lat="43.54865" lon="7.66737">
        <time>2019-10-13T12:50:39.001Z</time>
      </trkpt>
      <trkpt lat="43.54775" lon="7.6712">
        <time>2019-10-13T12:51:12.001Z</time>
      </trkpt>
      <trkpt lat="43.54685" lon="7.67462">
        <time>2019-10-13T12:51:45.001Z</time>
      </trkpt>
      <trkpt lat="43.54593" lon="7.67819">
        <time>2019-10-13T12:52:15.001Z</time>
      </trkpt>
      <trkpt lat="43.54492" lon="7.68196">
        <time>2019-10-13T12:52:48.001Z</time>
      </trkpt>
      <trkpt lat="43.54401" lon="7.68541">
        <time>2019-10-13T12:53:21.001Z</time>
      </trkpt>
      <trkpt lat="43.54306" lon="7.68915">
        <time>2019-10-13T12:53:54.001Z</time>
      </trkpt>
      <trkpt lat="43.54225" lon="7.69269">
        <time>2019-10-13T12:54:27.001Z</time>
      </trkpt>
      <trkpt lat="43.54133" lon="7.69643">
        <time>2019-10-13T12:55:00.001Z</time>
      </trkpt>
      <trkpt lat="43.54048" lon="7.69977">
        <time>2019-10-13T12:55:30.001Z</time>
      </trkpt>
      <trkpt lat="43.53951" lon="7.70355">
        <time>2019-10-13T12:56:03.001Z</time>
      </trkpt>
      <trkpt lat="43.53876" lon="7.70685">
        <time>2019-10-13T12:56:36.001Z</time>
      </trkpt>
      <trkpt lat="43.53768" lon="7.71092">
        <time>2019-10-13T12:57:09.001Z</time>
      </trkpt>
      <trkpt lat="43.53685" lon="7.71447">
        <time>2019-10-13T12:57:42.001Z</time>
      </trkpt>
      <trkpt lat="43.536" lon="7.71794">
        <time>2019-10-13T12:58:12.001Z</time>
      </trkpt>
      <trkpt lat="43.535" lon="7.72158">
        <time>2019-10-13T12:58:45.001Z</time>
      </trkpt>
      <trkpt lat="43.53412" lon="7.72494">
        <time>2019-10-13T12:59:18.001Z</time>
      </trkpt>
      <trkpt lat="43.53317" lon="7.72876">
        <time>2019-10-13T12:59:51.001Z</time>
      </trkpt>
      <trkpt lat="43.53224" lon="7.73236">
        <time>2019-10-13T13:00:24.001Z</time>
      </trkpt>
      <trkpt lat="43.53145" lon="7.73571">
        <time>2019-10-13T13:00:57.001Z</time>
      </trkpt>
      <trkpt lat="43.53074" lon="7.73867">
        <time>2019-10-13T13:01:27.001Z</time>
      </trkpt>
      <trkpt lat="43.52948" lon="7.74318">
        <time>2019-10-13T13:02:00.001Z</time>
      </trkpt>
      <trkpt lat="43.52865" lon="7.74651">
        <time>2019-10-13T13:02:33.001Z</time>
      </trkpt>
      <trkpt lat="43.52768" lon="7.75046">
        <time>2019-10-13T13:03:06.001Z</time>
      </trkpt>
      <trkpt lat="43.52675" lon="7.75415">
        <time>2019-10-13T13:03:39.001Z</time>
      </trkpt>
      <trkpt lat="43.52594" lon="7.75745">
        <time>2019-10-13T13:04:09.001Z</time>
      </trkpt>
      <trkpt lat="43.52495" lon="7.76122">
        <time>2019-10-13T13:04:42.001Z</time>
      </trkpt>
      <trkpt lat="43.52405" lon="7.76468">
        <time>2019-10-13T13:05:15.001Z</time>
      </trkpt>
      <trkpt lat="43.52302" lon="7.76857">
        <time>2019-10-13T13:05:48.001Z</time>
      </trkpt>
      <trkpt lat="43.52217" lon="7.77213">
        <time>2019-10-13T13:06:21.001Z</time>
      </trkpt>
      <trkpt lat="43.52117" lon="7.77623">
        <time>2019-10-13T13:06:54.001Z</time>
      </trkpt>
      <trkpt lat="43.52029" lon="7.77957">
        <time>2019-10-13T13:07:24.001Z</time>
      </trkpt>
      <trkpt lat="43.51936" lon="7.78327">
        <time>2019-10-13T13:07:57.001Z</time>
      </trkpt>
      <trkpt lat="43.5184" lon="7.78714">
        <time>2019-10-13T13:08:30.001Z</time>
      </trkpt>
      <trkpt lat="43.51744" lon="7.79078">
        <time>2019-10-13T13:09:03.001Z</time>
      </trkpt>
      <trkpt lat="43.51653" lon="7.79449">
        <time>2019-10-13T13:09:36.001Z</time>
      </trkpt>
      <trkpt lat="43.51577" lon="7.79789">
        <time>2019-10-13T13:10:06.001Z</time>
      </trkpt>
      <trkpt lat="43.51479" lon="7.80159">
        <time>2019-10-13T13:10:39.001Z</time>
      </trkpt>
      <trkpt lat="43.5138" lon="7.80531">
        <time>2019-10-13T13:11:12.001Z</time>
      </trkpt>
      <trkpt lat="43.51292" lon="7.80903">
        <time>2019-10-13T13:11:45.001Z</time>
      </trkpt>
      <trkpt lat="43.51195" lon="7.81276">
        <time>2019-10-13T13:12:18.001Z</time>
      </trkpt>
      <trkpt lat="43.51101" lon="7.81658">
        <time>2019-10-13T13:12:51.001Z</time>
      </trkpt>
      <trkpt lat="43.51021" lon="7.81975">
        <time>2019-10-13T13:13:21.001Z</time>
      </trkpt>
      <trkpt lat="43.50932" lon="7.82352">
        <time>2019-10-13T13:13:54.001Z</time>
      </trkpt>
      <trkpt lat="43.50822" lon="7.82729">
        <time>2019-10-13T13:14:27.001Z</time>
      </trkpt>
      <trkpt lat="43.50722" lon="7.83102">
        <time>2019-10-13T13:15:00.001Z</time>
      </trkpt>
      <trkpt lat="43.50623" lon="7.83454">
        <time>2019-10-13T13:15:33.001Z</time>
      </trkpt>
      <trkpt lat="43.50536" lon="7.83786">
        <time>2019-10-13T13:16:03.001Z</time>
      </trkpt>
      <trkpt lat="43.50429" lon="7.84147">
        <time>2019-10-13T13:16:36.001Z</time>
      </trkpt>
      <trkpt lat="43.50329" lon="7.84519">
        <time>2019-10-13T13:17:09.001Z</time>
      </trkpt>
      <trkpt lat="43.50227" lon="7.84907">
        <time>2019-10-13T13:17:42.002Z</time>
      </trkpt>
      <trkpt lat="43.50125" lon="7.85291">
        <time>2019-10-13T13:18:15.001Z</time>
      </trkpt>
      <trkpt lat="43.50019" lon="7.85675">
        <time>2019-10-13T13:18:48.001Z</time>
      </trkpt>
      <trkpt lat="43.49906" lon="7.86003">
        <time>2019-10-13T13:19:18.001Z</time>
      </trkpt>
      <trkpt lat="43.49824" lon="7.8638">
        <time>2019-10-13T13:19:51.001Z</time>
      </trkpt>
      <trkpt lat="43.4972" lon="7.86776">
        <ele>0.525</ele>
        <time>2019-10-13T13:20:24.001Z</time>
      </trkpt>
      <trkpt lat="43.49601" lon="7.87131">
        <ele>22.225</ele>
        <time>2019-10-13T13:20:57.001Z</time>
      </trkpt>
      <trkpt lat="43.49492" lon="7.87507">
        <ele>28.201</ele>
        <time>2019-10-13T13:21:30.001Z</time>
      </trkpt>
      <trkpt lat="43.49402" lon="7.87847">
        <ele>29.598</ele>
        <time>2019-10-13T13:22:00.001Z</time>
      </trkpt>
      <trkpt lat="43.49282" lon="7.88219">
        <ele>33.695</ele>
        <time>2019-10-13T13:22:33.001Z</time>
      </trkpt>
      <trkpt lat="43.48455" lon="7.91132">
        <ele>27.492</ele>
        <time>2019-10-13T13:26:55.001Z</time>
      </trkpt>
      <trkpt lat="43.48149" lon="7.92227">
        <ele>28.983</ele>
        <time>2019-10-13T13:28:31.001Z</time>
      </trkpt>
      <trkpt lat="43.48046" lon="7.9258">
        <time>2019-10-13T13:29:04.001Z</time>
      </trkpt>
      <trkpt lat="43.47938" lon="7.92949">
        <time>2019-10-13T13:29:37.001Z</time>
      </trkpt>
      <trkpt lat="43.47833" lon="7.93292">
        <time>2019-10-13T13:30:07.001Z</time>
      </trkpt>
      <trkpt lat="43.4771" lon="7.93648">
        <time>2019-10-13T13:30:40.001Z</time>
      </trkpt>
      <trkpt lat="43.47585" lon="7.94015">
        <ele>6.398</ele>
        <time>2019-10-13T13:31:13.001Z</time>
      </trkpt>
      <trkpt lat="43.47465" lon="7.94376">
        <ele>5.784</ele>
        <time>2019-10-13T13:31:46.001Z</time>
      </trkpt>
      <trkpt lat="43.47348" lon="7.94756">
        <ele>10.791</ele>
        <time>2019-10-13T13:32:19.001Z</time>
      </trkpt>
      <trkpt lat="43.4723" lon="7.95092">
        <ele>16.895</ele>
        <time>2019-10-13T13:32:49.001Z</time>
      </trkpt>
      <trkpt lat="43.47147" lon="7.95445">
        <ele>4.935</ele>
        <time>2019-10-13T13:33:22.001Z</time>
      </trkpt>
      <trkpt lat="43.47038" lon="7.95809">
        <time>2019-10-13T13:33:55.001Z</time>
      </trkpt>
      <trkpt lat="43.4689" lon="7.9617">
        <time>2019-10-13T13:34:28.001Z</time>
      </trkpt>
      <trkpt lat="43.46785" lon="7.96515">
        <time>2019-10-13T13:35:01.001Z</time>
      </trkpt>
      <trkpt lat="43.46682" lon="7.96881">
        <time>2019-10-13T13:35:34.001Z</time>
      </trkpt>
      <trkpt lat="43.46567" lon="7.97235">
        <time>2019-10-13T13:36:04.001Z</time>
      </trkpt>
      <trkpt lat="43.46459" lon="7.97586">
        <time>2019-10-13T13:36:37.001Z</time>
      </trkpt>
      <trkpt lat="43.46342" lon="7.97958">
        <time>2019-10-13T13:37:10.001Z</time>
      </trkpt>
      <trkpt lat="43.46231" lon="7.98322">
        <time>2019-10-13T13:37:43.001Z</time>
      </trkpt>
      <trkpt lat="43.46127" lon="7.98703">
        <time>2019-10-13T13:38:16Z</time>
      </trkpt>
      <trkpt lat="43.46036" lon="7.99032">
        <time>2019-10-13T13:38:46.001Z</time>
      </trkpt>
      <trkpt lat="43.45934" lon="7.99392">
        <time>2019-10-13T13:39:19.001Z</time>
      </trkpt>
      <trkpt lat="43.45828" lon="7.9977">
        <time>2019-10-13T13:39:52.001Z</time>
      </trkpt>
      <trkpt lat="43.45724" lon="8.00122">
        <time>2019-10-13T13:40:25.001Z</time>
      </trkpt>
      <trkpt lat="43.45608" lon="8.00501">
        <time>2019-10-13T13:40:58.001Z</time>
      </trkpt>
      <trkpt lat="43.45507" lon="8.00891">
        <time>2019-10-13T13:41:31.001Z</time>
      </trkpt>
      <trkpt lat="43.45413" lon="8.01224">
        <time>2019-10-13T13:42:01.001Z</time>
      </trkpt>
      <trkpt lat="43.45311" lon="8.01593">
        <time>2019-10-13T13:42:34.001Z</time>
      </trkpt>
      <trkpt lat="43.45206" lon="8.01964">
        <time>2019-10-13T13:43:07.001Z</time>
      </trkpt>
      <trkpt lat="43.45102" lon="8.02326">
        <ele>0.329</ele>
        <time>2019-10-13T13:43:40.001Z</time>
      </trkpt>
      <trkpt lat="43.44998" lon="8.02699">
        <time>2019-10-13T13:44:13.001Z</time>
      </trkpt>
      <trkpt lat="43.44889" lon="8.03022">
        <time>2019-10-13T13:44:43.001Z</time>
      </trkpt>
      <trkpt lat="43.44784" lon="8.03381">
        <time>2019-10-13T13:45:16Z</time>
      </trkpt>
      <trkpt lat="43.44679" lon="8.03778">
        <time>2019-10-13T13:45:49.001Z</time>
      </trkpt>
      <trkpt lat="43.44584" lon="8.04136">
        <time>2019-10-13T13:46:22.002Z</time>
      </trkpt>
      <trkpt lat="43.4446" lon="8.04485">
        <time>2019-10-13T13:46:55.001Z</time>
      </trkpt>
      <trkpt lat="43.44369" lon="8.0488">
        <time>2019-10-13T13:47:28.001Z</time>
      </trkpt>
      <trkpt lat="43.4427" lon="8.05225">
        <time>2019-10-13T13:47:58.001Z</time>
      </trkpt>
      <trkpt lat="43.44178" lon="8.05602">
        <time>2019-10-13T13:48:31.001Z</time>
      </trkpt>
      <trkpt lat="43.44068" lon="8.05957">
        <time>2019-10-13T13:49:04.001Z</time>
      </trkpt>
      <trkpt lat="43.43971" lon="8.06337">
        <time>2019-10-13T13:49:37.001Z</time>
      </trkpt>
      <trkpt lat="43.43879" lon="8.067">
        <time>2019-10-13T13:50:10.001Z</time>
      </trkpt>
      <trkpt lat="43.43781" lon="8.0702">
        <time>2019-10-13T13:50:40.001Z</time>
      </trkpt>
      <trkpt lat="43.43668" lon="8.07389">
        <time>2019-10-13T13:51:13.001Z</time>
      </trkpt>
      <trkpt lat="43.43551" lon="8.0775">
        <time>2019-10-13T13:51:46.001Z</time>
      </trkpt>
      <trkpt lat="43.43469" lon="8.08136">
        <ele>5.752</ele>
        <time>2019-10-13T13:52:19.001Z</time>
      </trkpt>
      <trkpt lat="43.43364" lon="8.08499">
        <ele>0.81</ele>
        <time>2019-10-13T13:52:52.001Z</time>
      </trkpt>
      <trkpt lat="43.43286" lon="8.08862">
        <time>2019-10-13T13:53:22.001Z</time>
      </trkpt>
      <trkpt lat="43.4316" lon="8.09229">
        <time>2019-10-13T13:53:55.001Z</time>
      </trkpt>
      <trkpt lat="43.4307" lon="8.09616">
        <time>2019-10-13T13:54:28.001Z</time>
      </trkpt>
      <trkpt lat="43.42983" lon="8.09969">
        <time>2019-10-13T13:55:01.001Z</time>
      </trkpt>
      <trkpt lat="43.42867" lon="8.10315">
        <time>2019-10-13T13:55:34.001Z</time>
      </trkpt>
      <trkpt lat="43.42748" lon="8.10703">
        <time>2019-10-13T13:56:07.001Z</time>
      </trkpt>
      <trkpt lat="43.42653" lon="8.11012">
        <time>2019-10-13T13:56:37.001Z</time>
      </trkpt>
      <trkpt lat="43.42562" lon="8.11383">
        <time>2019-10-13T13:57:10.001Z</time>
      </trkpt>
      <trkpt lat="43.42471" lon="8.11743">
        <time>2019-10-13T13:57:43.001Z</time>
      </trkpt>
      <trkpt lat="43.42355" lon="8.12127">
        <time>2019-10-13T13:58:16Z</time>
      </trkpt>
      <trkpt lat="43.42247" lon="8.12472">
        <time>2019-10-13T13:58:49.001Z</time>
      </trkpt>
      <trkpt lat="43.42158" lon="8.12802">
        <time>2019-10-13T13:59:19.001Z</time>
      </trkpt>
      <trkpt lat="43.42062" lon="8.13197">
        <time>2019-10-13T13:59:52.001Z</time>
      </trkpt>
      <trkpt lat="43.41942" lon="8.13558">
        <time>2019-10-13T14:00:25.001Z</time>
      </trkpt>
      <trkpt lat="43.41843" lon="8.13949">
        <time>2019-10-13T14:00:58.001Z</time>
      </trkpt>
      <trkpt lat="43.41739" lon="8.14297">
        <time>2019-10-13T14:01:31.001Z</time>
      </trkpt>
      <trkpt lat="43.41624" lon="8.14676">
        <time>2019-10-13T14:02:04.001Z</time>
      </trkpt>
      <trkpt lat="43.41544" lon="8.15011">
        <time>2019-10-13T14:02:34.001Z</time>
      </trkpt>
      <trkpt lat="43.41444" lon="8.15366">
        <time>2019-10-13T14:03:07.001Z</time>
      </trkpt>
      <trkpt lat="43.41334" lon="8.15756">
        <time>2019-10-13T14:03:40.001Z</time>
      </trkpt>
      <trkpt lat="43.41235" lon="8.16115">
        <time>2019-10-13T14:04:13.001Z</time>
      </trkpt>
      <trkpt lat="43.41144" lon="8.16477">
        <time>2019-10-13T14:04:46.001Z</time>
      </trkpt>
      <trkpt lat="43.4106" lon="8.16815">
        <time>2019-10-13T14:05:16Z</time>
      </trkpt>
      <trkpt lat="43.40956" lon="8.17202">
        <time>2019-10-13T14:05:49.001Z</time>
      </trkpt>
      <trkpt lat="43.40857" lon="8.1756">
        <time>2019-10-13T14:06:22.001Z</time>
      </trkpt>
      <trkpt lat="43.40747" lon="8.17943">
        <time>2019-10-13T14:06:55.001Z</time>
      </trkpt>
      <trkpt lat="43.40651" lon="8.18293">
        <time>2019-10-13T14:07:28.001Z</time>
      </trkpt>
      <trkpt lat="43.4056" lon="8.18682">
        <time>2019-10-13T14:08:01.001Z</time>
      </trkpt>
      <trkpt lat="43.40456" lon="8.19017">
        <time>2019-10-13T14:08:31.001Z</time>
      </trkpt>
      <trkpt lat="43.40352" lon="8.19377">
        <time>2019-10-13T14:09:04.001Z</time>
      </trkpt>
      <trkpt lat="43.40259" lon="8.19755">
        <time>2019-10-13T14:09:37.001Z</time>
      </trkpt>
      <trkpt lat="43.4015" lon="8.20122">
        <time>2019-10-13T14:10:10.001Z</time>
      </trkpt>
      <trkpt lat="43.40055" lon="8.20492">
        <time>2019-10-13T14:10:43.001Z</time>
      </trkpt>
      <trkpt lat="43.39959" lon="8.20832">
        <time>2019-10-13T14:11:13.001Z</time>
      </trkpt>
      <trkpt lat="43.39857" lon="8.21205">
        <time>2019-10-13T14:11:46.001Z</time>
      </trkpt>
      <trkpt lat="43.39748" lon="8.21582">
        <time>2019-10-13T14:12:19.001Z</time>
      </trkpt>
      <trkpt lat="43.39656" lon="8.21938">
        <time>2019-10-13T14:12:52.001Z</time>
      </trkpt>
      <trkpt lat="43.39549" lon="8.22316">
        <time>2019-10-13T14:13:25.001Z</time>
      </trkpt>
      <trkpt lat="43.39444" lon="8.22673">
        <time>2019-10-13T14:13:58.001Z</time>
      </trkpt>
      <trkpt lat="43.39366" lon="8.22996">
        <time>2019-10-13T14:14:28.001Z</time>
      </trkpt>
      <trkpt lat="43.39258" lon="8.23371">
        <time>2019-10-13T14:15:01.001Z</time>
      </trkpt>
      <trkpt lat="43.39157" lon="8.23751">
        <time>2019-10-13T14:15:34.001Z</time>
      </trkpt>
      <trkpt lat="43.3906" lon="8.24123">
        <ele>8.927</ele>
        <time>2019-10-13T14:16:07.001Z</time>
      </trkpt>
      <trkpt lat="43.38955" lon="8.24478">
        <ele>12.366</ele>
        <time>2019-10-13T14:16:40.001Z</time>
      </trkpt>
      <trkpt lat="43.38857" lon="8.24823">
        <ele>10.297</ele>
        <time>2019-10-13T14:17:10.001Z</time>
      </trkpt>
      <trkpt lat="43.38758" lon="8.25181">
        <ele>5.519</ele>
        <time>2019-10-13T14:17:43.001Z</time>
      </trkpt>
      <trkpt lat="43.38666" lon="8.25545">
        <ele>1.633</ele>
        <time>2019-10-13T14:18:16Z</time>
      </trkpt>
      <trkpt lat="43.38577" lon="8.25898">
        <time>2019-10-13T14:18:49.001Z</time>
      </trkpt>
      <trkpt lat="43.38455" lon="8.26275">
        <time>2019-10-13T14:19:22.001Z</time>
      </trkpt>
      <trkpt lat="43.38353" lon="8.26641">
        <time>2019-10-13T14:19:55.001Z</time>
      </trkpt>
      <trkpt lat="43.38266" lon="8.26977">
        <time>2019-10-13T14:20:25.001Z</time>
      </trkpt>
      <trkpt lat="43.3817" lon="8.27343">
        <time>2019-10-13T14:20:58.001Z</time>
      </trkpt>
      <trkpt lat="43.38067" lon="8.27704">
        <time>2019-10-13T14:21:31.001Z</time>
      </trkpt>
      <trkpt lat="43.37968" lon="8.28081">
        <time>2019-10-13T14:22:04.001Z</time>
      </trkpt>
      <trkpt lat="43.37865" lon="8.28457">
        <time>2019-10-13T14:22:37.001Z</time>
      </trkpt>
      <trkpt lat="43.37784" lon="8.28786">
        <time>2019-10-13T14:23:07.001Z</time>
      </trkpt>
      <trkpt lat="43.37679" lon="8.29151">
        <time>2019-10-13T14:23:40.001Z</time>
      </trkpt>
      <trkpt lat="43.37584" lon="8.29508">
        <time>2019-10-13T14:24:13.001Z</time>
      </trkpt>
      <trkpt lat="43.37488" lon="8.2989">
        <time>2019-10-13T14:24:46.001Z</time>
      </trkpt>
      <trkpt lat="43.37395" lon="8.30247">
        <time>2019-10-13T14:25:19.001Z</time>
      </trkpt>
      <trkpt lat="43.37294" lon="8.30615">
        <time>2019-10-13T14:25:52.001Z</time>
      </trkpt>
      <trkpt lat="43.37223" lon="8.30954">
        <time>2019-10-13T14:26:22.001Z</time>
      </trkpt>
      <trkpt lat="43.37126" lon="8.31322">
        <time>2019-10-13T14:26:55.001Z</time>
      </trkpt>
      <trkpt lat="43.37032" lon="8.31682">
        <time>2019-10-13T14:27:28.001Z</time>
      </trkpt>
      <trkpt lat="43.36937" lon="8.32065">
        <time>2019-10-13T14:28:01.001Z</time>
      </trkpt>
      <trkpt lat="43.36845" lon="8.32436">
        <time>2019-10-13T14:28:34.001Z</time>
      </trkpt>
      <trkpt lat="43.36754" lon="8.3277">
        <time>2019-10-13T14:29:04.001Z</time>
      </trkpt>
      <trkpt lat="43.36663" lon="8.33135">
        <time>2019-10-13T14:29:37.001Z</time>
      </trkpt>
      <trkpt lat="43.36573" lon="8.33511">
        <time>2019-10-13T14:30:10.001Z</time>
      </trkpt>
      <trkpt lat="43.36475" lon="8.33874">
        <time>2019-10-13T14:30:43.001Z</time>
      </trkpt>
      <trkpt lat="43.36387" lon="8.34245">
        <time>2019-10-13T14:31:16Z</time>
      </trkpt>
      <trkpt lat="43.36338" lon="8.34617">
        <time>2019-10-13T14:31:49.001Z</time>
      </trkpt>
      <trkpt lat="43.36203" lon="8.34967">
        <time>2019-10-13T14:32:19.001Z</time>
      </trkpt>
      <trkpt lat="43.36111" lon="8.3532">
        <time>2019-10-13T14:32:52.001Z</time>
      </trkpt>
      <trkpt lat="43.3601" lon="8.35711">
        <time>2019-10-13T14:33:25.001Z</time>
      </trkpt>
      <trkpt lat="43.35922" lon="8.36079">
        <time>2019-10-13T14:33:58.001Z</time>
      </trkpt>
      <trkpt lat="43.35832" lon="8.36446">
        <time>2019-10-13T14:34:31.001Z</time>
      </trkpt>
      <trkpt lat="43.35746" lon="8.36787">
        <time>2019-10-13T14:35:01.001Z</time>
      </trkpt>
      <trkpt lat="43.35656" lon="8.37148">
        <time>2019-10-13T14:35:34.001Z</time>
      </trkpt>
      <trkpt lat="43.35565" lon="8.37528">
        <time>2019-10-13T14:36:07.001Z</time>
      </trkpt>
      <trkpt lat="43.35472" lon="8.37879">
        <time>2019-10-13T14:36:40.001Z</time>
      </trkpt>
      <trkpt lat="43.3537" lon="8.38285">
        <time>2019-10-13T14:37:13.001Z</time>
      </trkpt>
      <trkpt lat="43.35297" lon="8.38685">
        <time>2019-10-13T14:37:46.001Z</time>
      </trkpt>
      <trkpt lat="43.35197" lon="8.39028">
        <time>2019-10-13T14:38:19.001Z</time>
      </trkpt>
      <trkpt lat="43.35091" lon="8.39401">
        <time>2019-10-13T14:38:52.001Z</time>
      </trkpt>
      <trkpt lat="43.35037" lon="8.39781">
        <time>2019-10-13T14:39:25.001Z</time>
      </trkpt>
      <trkpt lat="43.34933" lon="8.40155">
        <time>2019-10-13T14:39:58.001Z</time>
      </trkpt>
      <trkpt lat="43.34855" lon="8.40542">
        <time>2019-10-13T14:40:31.001Z</time>
      </trkpt>
      <trkpt lat="43.34774" lon="8.40868">
        <time>2019-10-13T14:41:01.001Z</time>
      </trkpt>
      <trkpt lat="43.347" lon="8.41254">
        <time>2019-10-13T14:41:34.001Z</time>
      </trkpt>
      <trkpt lat="43.34625" lon="8.41624">
        <ele>6.645</ele>
        <time>2019-10-13T14:42:07.001Z</time>
      </trkpt>
      <trkpt lat="43.34522" lon="8.41998">
        <time>2019-10-13T14:42:40.001Z</time>
      </trkpt>
      <trkpt lat="43.34442" lon="8.42363">
        <time>2019-10-13T14:43:13.001Z</time>
      </trkpt>
      <trkpt lat="43.34362" lon="8.42727">
        <time>2019-10-13T14:43:46.001Z</time>
      </trkpt>
      <trkpt lat="43.34275" lon="8.43075">
        <time>2019-10-13T14:44:16Z</time>
      </trkpt>
      <trkpt lat="43.34192" lon="8.43437">
        <time>2019-10-13T14:44:49.001Z</time>
      </trkpt>
      <trkpt lat="43.34093" lon="8.43801">
        <time>2019-10-13T14:45:22.001Z</time>
      </trkpt>
      <trkpt lat="43.34015" lon="8.44182">
        <time>2019-10-13T14:45:55.001Z</time>
      </trkpt>
      <trkpt lat="43.33941" lon="8.44535">
        <time>2019-10-13T14:46:28.001Z</time>
      </trkpt>
      <trkpt lat="43.33865" lon="8.44879">
        <time>2019-10-13T14:46:58.001Z</time>
      </trkpt>
      <trkpt lat="43.33754" lon="8.45244">
        <time>2019-10-13T14:47:31.001Z</time>
      </trkpt>
      <trkpt lat="43.337" lon="8.4563">
        <time>2019-10-13T14:48:04.001Z</time>
      </trkpt>
      <trkpt lat="43.3358" lon="8.45979">
        <time>2019-10-13T14:48:37.001Z</time>
      </trkpt>
      <trkpt lat="43.3349" lon="8.46357">
        <time>2019-10-13T14:49:10.001Z</time>
      </trkpt>
      <trkpt lat="43.33388" lon="8.46718">
        <time>2019-10-13T14:49:43.001Z</time>
      </trkpt>
      <trkpt lat="43.33304" lon="8.47069">
        <time>2019-10-13T14:50:13.001Z</time>
      </trkpt>
      <trkpt lat="43.33235" lon="8.47429">
        <ele>5.378</ele>
        <time>2019-10-13T14:50:46.001Z</time>
      </trkpt>
      <trkpt lat="43.3315" lon="8.47784">
        <ele>14.979</ele>
        <time>2019-10-13T14:51:19.001Z</time>
      </trkpt>
      <trkpt lat="43.33062" lon="8.48155">
        <ele>4.139</ele>
        <time>2019-10-13T14:51:52.001Z</time>
      </trkpt>
      <trkpt lat="43.32972" lon="8.4852">
        <ele>10.265</ele>
        <time>2019-10-13T14:52:25.001Z</time>
      </trkpt>
      <trkpt lat="43.32903" lon="8.48852">
        <ele>17.096</ele>
        <time>2019-10-13T14:52:55.001Z</time>
      </trkpt>
      <trkpt lat="43.32819" lon="8.49211">
        <ele>12.783</ele>
        <time>2019-10-13T14:53:28.001Z</time>
      </trkpt>
      <trkpt lat="43.32737" lon="8.49586">
        <time>2019-10-13T14:54:01.001Z</time>
      </trkpt>
      <trkpt lat="43.32634" lon="8.49949">
        <time>2019-10-13T14:54:34.001Z</time>
      </trkpt>
      <trkpt lat="43.3253" lon="8.5032">
        <time>2019-10-13T14:55:07.001Z</time>
      </trkpt>
      <trkpt lat="43.3245" lon="8.50682">
        <time>2019-10-13T14:55:40.001Z</time>
      </trkpt>
      <trkpt lat="43.3237" lon="8.51012">
        <time>2019-10-13T14:56:10.001Z</time>
      </trkpt>
      <trkpt lat="43.32285" lon="8.51378">
        <time>2019-10-13T14:56:43.001Z</time>
      </trkpt>
      <trkpt lat="43.32203" lon="8.51736">
        <ele>5.158</ele>
        <time>2019-10-13T14:57:16Z</time>
      </trkpt>
      <trkpt lat="43.32133" lon="8.52107">
        <ele>8.685</ele>
        <time>2019-10-13T14:57:49.001Z</time>
      </trkpt>
      <trkpt lat="43.32031" lon="8.52476">
        <ele>4.893</ele>
        <time>2019-10-13T14:58:22.001Z</time>
      </trkpt>
      <trkpt lat="43.31953" lon="8.52811">
        <time>2019-10-13T14:58:52.001Z</time>
      </trkpt>
      <trkpt lat="43.31863" lon="8.53183">
        <time>2019-10-13T14:59:25.001Z</time>
      </trkpt>
      <trkpt lat="43.31761" lon="8.5354">
        <time>2019-10-13T14:59:58.001Z</time>
      </trkpt>
      <trkpt lat="43.3168" lon="8.53914">
        <time>2019-10-13T15:00:31.001Z</time>
      </trkpt>
      <trkpt lat="43.31605" lon="8.54282">
        <ele>1.876</ele>
        <time>2019-10-13T15:01:04.001Z</time>
      </trkpt>
      <trkpt lat="43.31504" lon="8.54642">
        <ele>20.875</ele>
        <time>2019-10-13T15:01:37.001Z</time>
      </trkpt>
      <trkpt lat="43.31477" lon="8.54979">
        <ele>38.176</ele>
        <time>2019-10-13T15:02:07.001Z</time>
      </trkpt>
      <trkpt lat="43.31384" lon="8.55336">
        <ele>42.961</ele>
        <time>2019-10-13T15:02:40.001Z</time>
      </trkpt>
      <trkpt lat="43.31266" lon="8.5571">
        <ele>38.004</ele>
        <time>2019-10-13T15:03:13.001Z</time>
      </trkpt>
      <trkpt lat="43.3118" lon="8.56069">
        <ele>16.573</ele>
        <time>2019-10-13T15:03:46.001Z</time>
      </trkpt>
      <trkpt lat="43.3107" lon="8.56439">
        <ele>6.182</ele>
        <time>2019-10-13T15:04:19.001Z</time>
      </trkpt>
      <trkpt lat="43.30972" lon="8.56771">
        <ele>3.907</ele>
        <time>2019-10-13T15:04:49.001Z</time>
      </trkpt>
      <trkpt lat="43.30868" lon="8.57136">
        <ele>9.219</ele>
        <time>2019-10-13T15:05:22.001Z</time>
      </trkpt>
      <trkpt lat="43.30799" lon="8.57507">
        <ele>19.421</ele>
        <time>2019-10-13T15:05:55.001Z</time>
      </trkpt>
      <trkpt lat="43.3072" lon="8.57871">
        <ele>20.394</ele>
        <time>2019-10-13T15:06:28.001Z</time>
      </trkpt>
      <trkpt lat="43.30617" lon="8.58235">
        <ele>16.478</ele>
        <time>2019-10-13T15:07:01.001Z</time>
      </trkpt>
      <trkpt lat="43.3054" lon="8.58599">
        <ele>7.665</ele>
        <time>2019-10-13T15:07:34.001Z</time>
      </trkpt>
      <trkpt lat="43.30406" lon="8.58917">
        <ele>7.539</ele>
        <time>2019-10-13T15:08:04.001Z</time>
      </trkpt>
      <trkpt lat="43.30317" lon="8.59293">
        <ele>1.968</ele>
        <time>2019-10-13T15:08:37.001Z</time>
      </trkpt>
      <trkpt lat="43.30235" lon="8.59653">
        <ele>5.458</ele>
        <time>2019-10-13T15:09:10.001Z</time>
      </trkpt>
      <trkpt lat="43.30123" lon="8.60023">
        <ele>6.639</ele>
        <time>2019-10-13T15:09:43.001Z</time>
      </trkpt>
      <trkpt lat="43.30054" lon="8.60395">
        <ele>19.15</ele>
        <time>2019-10-13T15:10:16Z</time>
      </trkpt>
      <trkpt lat="43.29962" lon="8.60721">
        <ele>21.094</ele>
        <time>2019-10-13T15:10:46.001Z</time>
      </trkpt>
      <trkpt lat="43.2989" lon="8.61089">
        <ele>6.609</ele>
        <time>2019-10-13T15:11:19.001Z</time>
      </trkpt>
      <trkpt lat="43.29773" lon="8.61453">
        <ele>0.074</ele>
        <time>2019-10-13T15:11:52.001Z</time>
      </trkpt>
      <trkpt lat="43.29673" lon="8.61834">
        <ele>1.215</ele>
        <time>2019-10-13T15:12:25.001Z</time>
      </trkpt>
      <trkpt lat="43.29595" lon="8.62196">
        <ele>10.027</ele>
        <time>2019-10-13T15:12:58.001Z</time>
      </trkpt>
      <trkpt lat="43.295" lon="8.62564">
        <ele>8.09</ele>
        <time>2019-10-13T15:13:31.001Z</time>
      </trkpt>
      <trkpt lat="43.29427" lon="8.62897">
        <ele>0.159</ele>
        <time>2019-10-13T15:14:01.001Z</time>
      </trkpt>
      <trkpt lat="43.29304" lon="8.63272">
        <time>2019-10-13T15:14:34.001Z</time>
      </trkpt>
      <trkpt lat="43.29208" lon="8.6365">
        <time>2019-10-13T15:15:07.001Z</time>
      </trkpt>
      <trkpt lat="43.291" lon="8.6401">
        <time>2019-10-13T15:15:40.001Z</time>
      </trkpt>
      <trkpt lat="43.2903" lon="8.64377">
        <time>2019-10-13T15:16:13.001Z</time>
      </trkpt>
      <trkpt lat="43.28933" lon="8.64721">
        <time>2019-10-13T15:16:43.001Z</time>
      </trkpt>
      <trkpt lat="43.28838" lon="8.65089">
        <time>2019-10-13T15:17:16Z</time>
      </trkpt>
      <trkpt lat="43.28764" lon="8.65451">
        <ele>1.774</ele>
        <time>2019-10-13T15:17:49.001Z</time>
      </trkpt>
      <trkpt lat="43.28658" lon="8.65822">
        <ele>8.673</ele>
        <time>2019-10-13T15:18:22.001Z</time>
      </trkpt>
      <trkpt lat="43.27881" lon="8.68628">
        <ele>5.934</ele>
        <time>2019-10-13T15:22:31.001Z</time>
      </trkpt>
      <trkpt lat="43.2781" lon="8.68994">
        <ele>22.994</ele>
        <time>2019-10-13T15:23:04.001Z</time>
      </trkpt>
      <trkpt lat="43.27808" lon="8.69361">
        <ele>7.482</ele>
        <time>2019-10-13T15:23:34.001Z</time>
      </trkpt>
      <trkpt lat="43.2772" lon="8.69749">
        <time>2019-10-13T15:24:07.001Z</time>
      </trkpt>
      <trkpt lat="43.27591" lon="8.70129">
        <time>2019-10-13T15:24:40.001Z</time>
      </trkpt>
      <trkpt lat="43.27465" lon="8.70493">
        <time>2019-10-13T15:25:13.001Z</time>
      </trkpt>
      <trkpt lat="43.27363" lon="8.70871">
        <time>2019-10-13T15:25:46.001Z</time>
      </trkpt>
      <trkpt lat="43.27326" lon="8.71229">
        <time>2019-10-13T15:26:16Z</time>
      </trkpt>
      <trkpt lat="43.27219" lon="8.71604">
        <time>2019-10-13T15:26:49.001Z</time>
      </trkpt>
      <trkpt lat="43.27091" lon="8.71968">
        <time>2019-10-13T15:27:22.001Z</time>
      </trkpt>
      <trkpt lat="43.27033" lon="8.72355">
        <time>2019-10-13T15:27:55.001Z</time>
      </trkpt>
      <trkpt lat="43.26977" lon="8.72734">
        <time>2019-10-13T15:28:28.001Z</time>
      </trkpt>
      <trkpt lat="43.26881" lon="8.73115">
        <time>2019-10-13T15:29:01.001Z</time>
      </trkpt>
      <trkpt lat="43.26804" lon="8.73458">
        <ele>1.974</ele>
        <time>2019-10-13T15:29:31.001Z</time>
      </trkpt>
      <trkpt lat="43.26738" lon="8.73827">
        <ele>1.437</ele>
        <time>2019-10-13T15:30:04.001Z</time>
      </trkpt>
      <trkpt lat="43.26622" lon="8.74218">
        <time>2019-10-13T15:30:37.001Z</time>
      </trkpt>
      <trkpt lat="43.26531" lon="8.74589">
        <time>2019-10-13T15:31:10.001Z</time>
      </trkpt>
      <trkpt lat="43.26438" lon="8.74964">
        <time>2019-10-13T15:31:43.001Z</time>
      </trkpt>
      <trkpt lat="43.26358" lon="8.75318">
        <time>2019-10-13T15:32:13.001Z</time>
      </trkpt>
      <trkpt lat="43.2626" lon="8.75703">
        <time>2019-10-13T15:32:46.001Z</time>
      </trkpt>
      <trkpt lat="43.26185" lon="8.76083">
        <time>2019-10-13T15:33:19.001Z</time>
      </trkpt>
      <trkpt lat="43.26098" lon="8.76464">
        <time>2019-10-13T15:33:52.001Z</time>
      </trkpt>
      <trkpt lat="43.26008" lon="8.7684">
        <time>2019-10-13T15:34:25.001Z</time>
      </trkpt>
      <trkpt lat="43.2591" lon="8.77232">
        <time>2019-10-13T15:34:58.001Z</time>
      </trkpt>
      <trkpt lat="43.25831" lon="8.77562">
        <time>2019-10-13T15:35:28.001Z</time>
      </trkpt>
      <trkpt lat="43.25743" lon="8.77945">
        <time>2019-10-13T15:36:01.001Z</time>
      </trkpt>
      <trkpt lat="43.25662" lon="8.78332">
        <time>2019-10-13T15:36:34.001Z</time>
      </trkpt>
      <trkpt lat="43.25583" lon="8.78702">
        <time>2019-10-13T15:37:07.001Z</time>
      </trkpt>
      <trkpt lat="43.25493" lon="8.79089">
        <time>2019-10-13T15:37:40.001Z</time>
      </trkpt>
      <trkpt lat="43.25428" lon="8.79434">
        <time>2019-10-13T15:38:10.001Z</time>
      </trkpt>
      <trkpt lat="43.25343" lon="8.79803">
        <time>2019-10-13T15:38:43.001Z</time>
      </trkpt>
      <trkpt lat="43.25271" lon="8.80195">
        <time>2019-10-13T15:39:16Z</time>
      </trkpt>
      <trkpt lat="43.2518" lon="8.80574">
        <time>2019-10-13T15:39:49.001Z</time>
      </trkpt>
      <trkpt lat="43.251" lon="8.8095">
        <time>2019-10-13T15:40:22.001Z</time>
      </trkpt>
      <trkpt lat="43.25013" lon="8.81347">
        <ele>5.163</ele>
        <time>2019-10-13T15:40:55.001Z</time>
      </trkpt>
      <trkpt lat="43.24952" lon="8.81691">
        <ele>12.673</ele>
        <time>2019-10-13T15:41:25.001Z</time>
      </trkpt>
      <trkpt lat="43.24888" lon="8.82073">
        <ele>13.79</ele>
        <time>2019-10-13T15:41:58.001Z</time>
      </trkpt>
      <trkpt lat="43.24804" lon="8.8246">
        <ele>1.057</ele>
        <time>2019-10-13T15:42:31.001Z</time>
      </trkpt>
      <trkpt lat="43.24713" lon="8.82851">
        <time>2019-10-13T15:43:04.001Z</time>
      </trkpt>
      <trkpt lat="43.24625" lon="8.83227">
        <ele>4.219</ele>
        <time>2019-10-13T15:43:37.001Z</time>
      </trkpt>
      <trkpt lat="43.24553" lon="8.83572">
        <ele>13.281</ele>
        <time>2019-10-13T15:44:07.001Z</time>
      </trkpt>
      <trkpt lat="43.24432" lon="8.8397">
        <ele>14.195</ele>
        <time>2019-10-13T15:44:40.001Z</time>
      </trkpt>
      <trkpt lat="43.24368" lon="8.84358">
        <ele>7.191</ele>
        <time>2019-10-13T15:45:13.001Z</time>
      </trkpt>
      <trkpt lat="43.24294" lon="8.8474">
        <ele>14.705</ele>
        <time>2019-10-13T15:45:46.001Z</time>
      </trkpt>
      <trkpt lat="43.24202" lon="8.85098">
        <ele>28.734</ele>
        <time>2019-10-13T15:46:19.001Z</time>
      </trkpt>
      <trkpt lat="43.24129" lon="8.85492">
        <ele>43.508</ele>
        <time>2019-10-13T15:46:52.001Z</time>
      </trkpt>
      <trkpt lat="43.24049" lon="8.85843">
        <ele>47.633</ele>
        <time>2019-10-13T15:47:22.001Z</time>
      </trkpt>
      <trkpt lat="43.23952" lon="8.86218">
        <ele>14.083</ele>
        <time>2019-10-13T15:47:55.001Z</time>
      </trkpt>
      <trkpt lat="43.23833" lon="8.86589">
        <time>2019-10-13T15:48:28.001Z</time>
      </trkpt>
      <trkpt lat="43.23738" lon="8.86963">
        <time>2019-10-13T15:49:01.001Z</time>
      </trkpt>
      <trkpt lat="43.2365" lon="8.87332">
        <time>2019-10-13T15:49:34.001Z</time>
      </trkpt>
      <trkpt lat="43.23571" lon="8.87677">
        <time>2019-10-13T15:50:04.001Z</time>
      </trkpt>
      <trkpt lat="43.23479" lon="8.8806">
        <ele>5.68</ele>
        <time>2019-10-13T15:50:37.001Z</time>
      </trkpt>
      <trkpt lat="43.23397" lon="8.8842">
        <ele>3.429</ele>
        <time>2019-10-13T15:51:10.001Z</time>
      </trkpt>
      <trkpt lat="43.23288" lon="8.88796">
        <ele>3.499</ele>
        <time>2019-10-13T15:51:43.001Z</time>
      </trkpt>
      <trkpt lat="43.23194" lon="8.8916">
        <ele>9.211</ele>
        <time>2019-10-13T15:52:16Z</time>
      </trkpt>
      <trkpt lat="43.23113" lon="8.89532">
        <ele>9.318</ele>
        <time>2019-10-13T15:52:49.001Z</time>
      </trkpt>
      <trkpt lat="43.23" lon="8.89859">
        <ele>9.114</ele>
        <time>2019-10-13T15:53:19.001Z</time>
      </trkpt>
      <trkpt lat="43.229" lon="8.90233">
        <ele>7.572</ele>
        <time>2019-10-13T15:53:52.001Z</time>
      </trkpt>
      <trkpt lat="43.22326" lon="8.92861">
        <ele>109.733</ele>
        <time>2019-10-13T15:57:45.001Z</time>
      </trkpt>
      <trkpt lat="43.22113" lon="8.93215">
        <time>2019-10-13T15:58:18.001Z</time>
      </trkpt>
      <trkpt lat="43.21992" lon="8.93575">
        <time>2019-10-13T15:58:51.001Z</time>
      </trkpt>
      <trkpt lat="43.21877" lon="8.93914">
        <time>2019-10-13T15:59:21.001Z</time>
      </trkpt>
      <trkpt lat="43.21736" lon="8.94285">
        <time>2019-10-13T15:59:54.001Z</time>
      </trkpt>
      <trkpt lat="43.21685" lon="8.94651">
        <time>2019-10-13T16:00:27.001Z</time>
      </trkpt>
      <trkpt lat="43.21571" lon="8.95022">
        <time>2019-10-13T16:01:00.001Z</time>
      </trkpt>
      <trkpt lat="43.21518" lon="8.9539">
        <time>2019-10-13T16:01:33.001Z</time>
      </trkpt>
      <trkpt lat="43.21401" lon="8.9577">
        <time>2019-10-13T16:02:06.001Z</time>
      </trkpt>
      <trkpt lat="43.21314" lon="8.9609">
        <time>2019-10-13T16:02:36.001Z</time>
      </trkpt>
      <trkpt lat="43.21203" lon="8.96469">
        <time>2019-10-13T16:03:09.001Z</time>
      </trkpt>
      <trkpt lat="43.21142" lon="8.96886">
        <ele>1.416</ele>
        <time>2019-10-13T16:03:42.001Z</time>
      </trkpt>
      <trkpt lat="43.21017" lon="8.97204">
        <ele>2.48</ele>
        <time>2019-10-13T16:04:15.001Z</time>
      </trkpt>
      <trkpt lat="43.20921" lon="8.97594">
        <ele>0.164</ele>
        <time>2019-10-13T16:04:48.001Z</time>
      </trkpt>
      <trkpt lat="43.20812" lon="8.97943">
        <time>2019-10-13T16:05:18.001Z</time>
      </trkpt>
      <trkpt lat="43.20793" lon="8.98338">
        <ele>7.467</ele>
        <time>2019-10-13T16:05:51.001Z</time>
      </trkpt>
      <trkpt lat="43.2062" lon="8.98706">
        <time>2019-10-13T16:06:24.001Z</time>
      </trkpt>
      <trkpt lat="43.20521" lon="8.99072">
        <ele>0.226</ele>
        <time>2019-10-13T16:06:57.001Z</time>
      </trkpt>
      <trkpt lat="43.20404" lon="8.99441">
        <time>2019-10-13T16:07:30.001Z</time>
      </trkpt>
      <trkpt lat="43.20302" lon="8.99805">
        <time>2019-10-13T16:08:03.001Z</time>
      </trkpt>
      <trkpt lat="43.20184" lon="9.00107">
        <time>2019-10-13T16:08:33.001Z</time>
      </trkpt>
      <trkpt lat="43.20101" lon="9.00502">
        <time>2019-10-13T16:09:06.001Z</time>
      </trkpt>
      <trkpt lat="43.19986" lon="9.00861">
        <time>2019-10-13T16:09:39.001Z</time>
      </trkpt>
      <trkpt lat="43.19887" lon="9.01235">
        <time>2019-10-13T16:10:12.001Z</time>
      </trkpt>
      <trkpt lat="43.19754" lon="9.01587">
        <time>2019-10-13T16:10:45.001Z</time>
      </trkpt>
      <trkpt lat="43.19712" lon="9.01951">
        <time>2019-10-13T16:11:15.001Z</time>
      </trkpt>
      <trkpt lat="43.19578" lon="9.02301">
        <time>2019-10-13T16:11:48.001Z</time>
      </trkpt>
      <trkpt lat="43.195" lon="9.02676">
        <time>2019-10-13T16:12:21.001Z</time>
      </trkpt>
      <trkpt lat="43.19443" lon="9.03067">
        <time>2019-10-13T16:12:54.001Z</time>
      </trkpt>
      <trkpt lat="43.19248" lon="9.03376">
        <time>2019-10-13T16:13:27.001Z</time>
      </trkpt>
      <trkpt lat="43.17123" lon="9.11198">
        <time>2019-10-13T16:25:17.001Z</time>
      </trkpt>
      <trkpt lat="43.17046" lon="9.11544">
        <time>2019-10-13T16:25:47.001Z</time>
      </trkpt>
      <trkpt lat="43.16951" lon="9.11908">
        <ele>5.368</ele>
        <time>2019-10-13T16:26:20.001Z</time>
      </trkpt>
      <trkpt lat="43.16849" lon="9.12255">
        <time>2019-10-13T16:26:53.001Z</time>
      </trkpt>
      <trkpt lat="43.16751" lon="9.12616">
        <time>2019-10-13T16:27:26.001Z</time>
      </trkpt>
      <trkpt lat="43.16658" lon="9.12968">
        <time>2019-10-13T16:27:59.001Z</time>
      </trkpt>
      <trkpt lat="43.16571" lon="9.13294">
        <time>2019-10-13T16:28:29.001Z</time>
      </trkpt>
      <trkpt lat="43.16479" lon="9.13642">
        <time>2019-10-13T16:29:02Z</time>
      </trkpt>
      <trkpt lat="43.16374" lon="9.14002">
        <ele>7.613</ele>
        <time>2019-10-13T16:29:35.001Z</time>
      </trkpt>
      <trkpt lat="43.16291" lon="9.14408">
        <ele>5.464</ele>
        <time>2019-10-13T16:30:08.001Z</time>
      </trkpt>
      <trkpt lat="43.16208" lon="9.14778">
        <ele>0.98</ele>
        <time>2019-10-13T16:30:41.001Z</time>
      </trkpt>
      <trkpt lat="43.16106" lon="9.15159">
        <time>2019-10-13T16:31:14.001Z</time>
      </trkpt>
      <trkpt lat="43.16022" lon="9.15481">
        <time>2019-10-13T16:31:44.001Z</time>
      </trkpt>
      <trkpt lat="43.15926" lon="9.15851">
        <time>2019-10-13T16:32:17.001Z</time>
      </trkpt>
      <trkpt lat="43.15829" lon="9.16209">
        <time>2019-10-13T16:32:50.001Z</time>
      </trkpt>
      <trkpt lat="43.15732" lon="9.1658">
        <time>2019-10-13T16:33:23.001Z</time>
      </trkpt>
      <trkpt lat="43.15633" lon="9.16947">
        <time>2019-10-13T16:33:56.001Z</time>
      </trkpt>
      <trkpt lat="43.15543" lon="9.17292">
        <time>2019-10-13T16:34:26.001Z</time>
      </trkpt>
      <trkpt lat="43.15449" lon="9.17653">
        <time>2019-10-13T16:34:59.001Z</time>
      </trkpt>
      <trkpt lat="43.15361" lon="9.1801">
        <time>2019-10-13T16:35:32.001Z</time>
      </trkpt>
      <trkpt lat="43.15261" lon="9.18392">
        <time>2019-10-13T16:36:05.001Z</time>
      </trkpt>
      <trkpt lat="43.15174" lon="9.18745">
        <time>2019-10-13T16:36:38.001Z</time>
      </trkpt>
      <trkpt lat="43.15081" lon="9.19102">
        <time>2019-10-13T16:37:11.001Z</time>
      </trkpt>
      <trkpt lat="43.1498" lon="9.19479">
        <time>2019-10-13T16:37:41.001Z</time>
      </trkpt>
      <trkpt lat="43.1489" lon="9.19828">
        <time>2019-10-13T16:38:14.001Z</time>
      </trkpt>
      <trkpt lat="43.14787" lon="9.20192">
        <time>2019-10-13T16:38:47.001Z</time>
      </trkpt>
      <trkpt lat="43.14677" lon="9.20538">
        <ele>4.279</ele>
        <time>2019-10-13T16:39:20.001Z</time>
      </trkpt>
      <trkpt lat="43.14581" lon="9.20898">
        <ele>9.626</ele>
        <time>2019-10-13T16:39:53.001Z</time>
      </trkpt>
      <trkpt lat="43.14475" lon="9.21248">
        <ele>8.727</ele>
        <time>2019-10-13T16:40:23.001Z</time>
      </trkpt>
      <trkpt lat="43.14381" lon="9.21613">
        <time>2019-10-13T16:40:56.001Z</time>
      </trkpt>
      <trkpt lat="43.14279" lon="9.21988">
        <time>2019-10-13T16:41:29.001Z</time>
      </trkpt>
      <trkpt lat="43.14181" lon="9.22341">
        <time>2019-10-13T16:42:02Z</time>
      </trkpt>
      <trkpt lat="43.14076" lon="9.22696">
        <time>2019-10-13T16:42:35.001Z</time>
      </trkpt>
      <trkpt lat="43.13963" lon="9.23054">
        <time>2019-10-13T16:43:08.001Z</time>
      </trkpt>
      <trkpt lat="43.13874" lon="9.23373">
        <time>2019-10-13T16:43:38.001Z</time>
      </trkpt>
      <trkpt lat="43.13763" lon="9.23756">
        <time>2019-10-13T16:44:11.001Z</time>
      </trkpt>
      <trkpt lat="43.13661" lon="9.24105">
        <time>2019-10-13T16:44:44.001Z</time>
      </trkpt>
      <trkpt lat="43.13557" lon="9.24471">
        <time>2019-10-13T16:45:17.001Z</time>
      </trkpt>
      <trkpt lat="43.13447" lon="9.24833">
        <ele>4.5</ele>
        <time>2019-10-13T16:45:50.001Z</time>
      </trkpt>
      <trkpt lat="43.13344" lon="9.25168">
        <ele>11.532</ele>
        <time>2019-10-13T16:46:20.001Z</time>
      </trkpt>
      <trkpt lat="43.1322" lon="9.25534">
        <time>2019-10-13T16:46:53.001Z</time>
      </trkpt>
      <trkpt lat="43.13125" lon="9.25908">
        <time>2019-10-13T16:47:26.001Z</time>
      </trkpt>
      <trkpt lat="43.13015" lon="9.26264">
        <time>2019-10-13T16:47:59.001Z</time>
      </trkpt>
      <trkpt lat="43.12908" lon="9.26615">
        <time>2019-10-13T16:48:32.001Z</time>
      </trkpt>
      <trkpt lat="43.12797" lon="9.26984">
        <time>2019-10-13T16:49:05.001Z</time>
      </trkpt>
      <trkpt lat="43.12705" lon="9.27311">
        <time>2019-10-13T16:49:35.001Z</time>
      </trkpt>
      <trkpt lat="43.12594" lon="9.27668">
        <time>2019-10-13T16:50:08.001Z</time>
      </trkpt>
      <trkpt lat="43.12478" lon="9.28032">
        <time>2019-10-13T16:50:41.001Z</time>
      </trkpt>
      <trkpt lat="43.12372" lon="9.28419">
        <time>2019-10-13T16:51:14.001Z</time>
      </trkpt>
      <trkpt lat="43.12297" lon="9.28759">
        <time>2019-10-13T16:51:47.001Z</time>
      </trkpt>
      <trkpt lat="43.12158" lon="9.29063">
        <time>2019-10-13T16:52:17.001Z</time>
      </trkpt>
      <trkpt lat="43.12069" lon="9.29436">
        <ele>1.135</ele>
        <time>2019-10-13T16:52:50.001Z</time>
      </trkpt>
      <trkpt lat="43.11943" lon="9.29828">
        <ele>6.252</ele>
        <time>2019-10-13T16:53:23.001Z</time>
      </trkpt>
      <trkpt lat="43.11892" lon="9.3019">
        <ele>3.451</ele>
        <time>2019-10-13T16:53:56.001Z</time>
      </trkpt>
      <trkpt lat="43.11735" lon="9.30535">
        <ele>0.845</ele>
        <time>2019-10-13T16:54:29.001Z</time>
      </trkpt>
      <trkpt lat="43.11652" lon="9.30911">
        <time>2019-10-13T16:55:02Z</time>
      </trkpt>
      <trkpt lat="43.11523" lon="9.31234">
        <time>2019-10-13T16:55:32.001Z</time>
      </trkpt>
      <trkpt lat="43.11394" lon="9.31593">
        <time>2019-10-13T16:56:05.001Z</time>
      </trkpt>
      <trkpt lat="43.11295" lon="9.3196">
        <time>2019-10-13T16:56:38.001Z</time>
      </trkpt>
      <trkpt lat="43.11181" lon="9.32317">
        <time>2019-10-13T16:57:11.001Z</time>
      </trkpt>
      <trkpt lat="43.11055" lon="9.32687">
        <time>2019-10-13T16:57:44.001Z</time>
      </trkpt>
      <trkpt lat="43.10995" lon="9.33026">
        <time>2019-10-13T16:58:14.001Z</time>
      </trkpt>
      <trkpt lat="43.10903" lon="9.33398">
        <time>2019-10-13T16:58:47.001Z</time>
      </trkpt>
      <trkpt lat="43.10761" lon="9.3374">
        <time>2019-10-13T16:59:20.001Z</time>
      </trkpt>
      <trkpt lat="43.10644" lon="9.34105">
        <time>2019-10-13T16:59:53.001Z</time>
      </trkpt>
      <trkpt lat="43.1052" lon="9.34454">
        <time>2019-10-13T17:00:26.001Z</time>
      </trkpt>
      <trkpt lat="43.10411" lon="9.3483">
        <time>2019-10-13T17:00:59.001Z</time>
      </trkpt>
      <trkpt lat="43.10314" lon="9.35169">
        <time>2019-10-13T17:01:29.001Z</time>
      </trkpt>
      <trkpt lat="43.10176" lon="9.35514">
        <time>2019-10-13T17:02:02Z</time>
      </trkpt>
      <trkpt lat="43.10072" lon="9.35873">
        <time>2019-10-13T17:02:35.001Z</time>
      </trkpt>
      <trkpt lat="43.0995" lon="9.36227">
        <time>2019-10-13T17:03:08.001Z</time>
      </trkpt>
      <trkpt lat="43.09827" lon="9.36596">
        <time>2019-10-13T17:03:41.001Z</time>
      </trkpt>
      <trkpt lat="43.09723" lon="9.3693">
        <time>2019-10-13T17:04:11.001Z</time>
      </trkpt>
      <trkpt lat="43.09599" lon="9.37273">
        <time>2019-10-13T17:04:44.001Z</time>
      </trkpt>
      <trkpt lat="43.0949" lon="9.37635">
        <time>2019-10-13T17:05:17.001Z</time>
      </trkpt>
      <trkpt lat="43.09356" lon="9.38007">
        <time>2019-10-13T17:05:50.001Z</time>
      </trkpt>
      <trkpt lat="43.09189" lon="9.38353">
        <time>2019-10-13T17:06:23.001Z</time>
      </trkpt>
      <trkpt lat="43.09175" lon="9.38686">
        <time>2019-10-13T17:06:56.001Z</time>
      </trkpt>
      <trkpt lat="43.09036" lon="9.39039">
        <time>2019-10-13T17:07:26.001Z</time>
      </trkpt>
      <trkpt lat="43.08898" lon="9.39403">
        <time>2019-10-13T17:07:59.001Z</time>
      </trkpt>
      <trkpt lat="43.08821" lon="9.3975">
        <time>2019-10-13T17:08:32.001Z</time>
      </trkpt>
      <trkpt lat="43.087" lon="9.40122">
        <time>2019-10-13T17:09:05.001Z</time>
      </trkpt>
      <trkpt lat="43.0859" lon="9.40457">
        <time>2019-10-13T17:09:38.001Z</time>
      </trkpt>
      <trkpt lat="43.08527" lon="9.4075">
        <time>2019-10-13T17:10:08.001Z</time>
      </trkpt>
      <trkpt lat="43.08357" lon="9.41115">
        <time>2019-10-13T17:10:41.001Z</time>
      </trkpt>
      <trkpt lat="43.08276" lon="9.41426">
        <time>2019-10-13T17:11:14.001Z</time>
      </trkpt>
      <trkpt lat="43.08174" lon="9.41703">
        <time>2019-10-13T17:11:47.001Z</time>
      </trkpt>
      <trkpt lat="43.08118" lon="9.42018">
        <time>2019-10-13T17:12:20.001Z</time>
      </trkpt>
      <trkpt lat="43.07935" lon="9.42229">
        <time>2019-10-13T17:12:53.001Z</time>
      </trkpt>
      <trkpt lat="43.07742" lon="9.4247">
        <time>2019-10-13T17:13:23.001Z</time>
      </trkpt>
      <trkpt lat="43.07633" lon="9.42748">
        <ele>10.878</ele>
        <time>2019-10-13T17:13:56.001Z</time>
      </trkpt>
      <trkpt lat="43.07488" lon="9.42992">
        <time>2019-10-13T17:14:29.001Z</time>
      </trkpt>
      <trkpt lat="43.07294" lon="9.43261">
        <time>2019-10-13T17:15:02Z</time>
      </trkpt>
      <trkpt lat="43.07147" lon="9.43517">
        <time>2019-10-13T17:15:35.001Z</time>
      </trkpt>
      <trkpt lat="43.06976" lon="9.43777">
        <time>2019-10-13T17:16:05.001Z</time>
      </trkpt>
      <trkpt lat="43.06817" lon="9.44057">
        <time>2019-10-13T17:16:38.001Z</time>
      </trkpt>
      <trkpt lat="43.0659" lon="9.44358">
        <time>2019-10-13T17:17:11.001Z</time>
      </trkpt>
      <trkpt lat="43.06442" lon="9.44662">
        <time>2019-10-13T17:17:44.001Z</time>
      </trkpt>
      <trkpt lat="43.063" lon="9.44984">
        <time>2019-10-13T17:18:17.001Z</time>
      </trkpt>
      <trkpt lat="43.06108" lon="9.45294">
        <time>2019-10-13T17:18:50.001Z</time>
      </trkpt>
      <trkpt lat="43.05923" lon="9.45553">
        <time>2019-10-13T17:19:20.001Z</time>
      </trkpt>
      <trkpt lat="43.05754" lon="9.45839">
        <time>2019-10-13T17:19:53.001Z</time>
      </trkpt>
      <trkpt lat="43.05525" lon="9.46133">
        <ele>2.142</ele>
        <time>2019-10-13T17:20:26.001Z</time>
      </trkpt>
      <trkpt lat="43.05333" lon="9.46436">
        <ele>3.659</ele>
        <time>2019-10-13T17:20:59.001Z</time>
      </trkpt>
      <trkpt lat="43.05136" lon="9.46695">
        <ele>5.666</ele>
        <time>2019-10-13T17:21:32.001Z</time>
      </trkpt>
      <trkpt lat="43.04948" lon="9.46994">
        <ele>1.387</ele>
        <time>2019-10-13T17:22:02Z</time>
      </trkpt>
      <trkpt lat="43.0473" lon="9.47279">
        <time>2019-10-13T17:22:35.001Z</time>
      </trkpt>
      <trkpt lat="43.04546" lon="9.4754">
        <time>2019-10-13T17:23:08.001Z</time>
      </trkpt>
      <trkpt lat="43.04355" lon="9.47835">
        <time>2019-10-13T17:23:41.001Z</time>
      </trkpt>
      <trkpt lat="43.0418" lon="9.4809">
        <ele>2.89</ele>
        <time>2019-10-13T17:24:14.001Z</time>
      </trkpt>
      <trkpt lat="43.03945" lon="9.48413">
        <ele>35.976</ele>
        <time>2019-10-13T17:24:47.001Z</time>
      </trkpt>
      <trkpt lat="43.03774" lon="9.48668">
        <ele>43.075</ele>
        <time>2019-10-13T17:25:17.001Z</time>
      </trkpt>
      <trkpt lat="43.03569" lon="9.48964">
        <ele>47.867</ele>
        <time>2019-10-13T17:25:50.001Z</time>
      </trkpt>
      <trkpt lat="43.03369" lon="9.49232">
        <ele>42.038</ele>
        <time>2019-10-13T17:26:23.001Z</time>
      </trkpt>
      <trkpt lat="43.03196" lon="9.4952">
        <ele>24.548</ele>
        <time>2019-10-13T17:26:56.001Z</time>
      </trkpt>
      <trkpt lat="43.02995" lon="9.49809">
        <time>2019-10-13T17:27:29.001Z</time>
      </trkpt>
      <trkpt lat="43.02809" lon="9.50046">
        <time>2019-10-13T17:27:59.001Z</time>
      </trkpt>
      <trkpt lat="43.02617" lon="9.50321">
        <time>2019-10-13T17:28:32.001Z</time>
      </trkpt>
      <trkpt lat="43.02431" lon="9.50582">
        <time>2019-10-13T17:29:05.001Z</time>
      </trkpt>
      <trkpt lat="43.022" lon="9.50873">
        <time>2019-10-13T17:29:38.001Z</time>
      </trkpt>
      <trkpt lat="43.02019" lon="9.51121">
        <time>2019-10-13T17:30:11.001Z</time>
      </trkpt>
      <trkpt lat="43.01808" lon="9.51422">
        <time>2019-10-13T17:30:44.001Z</time>
      </trkpt>
      <trkpt lat="43.01577" lon="9.51841">
        <time>2019-10-13T17:31:29.001Z</time>
      </trkpt>
      <trkpt lat="43.01383" lon="9.52012">
        <time>2019-10-13T17:32:02Z</time>
      </trkpt>
      <trkpt lat="43.01178" lon="9.52309">
        <time>2019-10-13T17:32:35.001Z</time>
      </trkpt>
      <trkpt lat="43.00944" lon="9.52581">
        <time>2019-10-13T17:33:08.001Z</time>
      </trkpt>
      <trkpt lat="43.00748" lon="9.52828">
        <time>2019-10-13T17:33:41.001Z</time>
      </trkpt>
      <trkpt lat="43.00573" lon="9.52997">
        <time>2019-10-13T17:34:11.001Z</time>
      </trkpt>
      <trkpt lat="43.00366" lon="9.53195">
        <time>2019-10-13T17:34:44.001Z</time>
      </trkpt>
      <trkpt lat="43.00137" lon="9.53373">
        <time>2019-10-13T17:35:17.001Z</time>
      </trkpt>
      <trkpt lat="42.99826" lon="9.53607">
        <time>2019-10-13T17:35:50.001Z</time>
      </trkpt>
      <trkpt lat="42.99566" lon="9.53725">
        <time>2019-10-13T17:36:23.001Z</time>
      </trkpt>
      <trkpt lat="42.99293" lon="9.53806">
        <time>2019-10-13T17:36:56.001Z</time>
      </trkpt>
      <trkpt lat="42.99048" lon="9.53847">
        <time>2019-10-13T17:37:26.001Z</time>
      </trkpt>
      <trkpt lat="42.98775" lon="9.53916">
        <time>2019-10-13T17:37:59.001Z</time>
      </trkpt>
      <trkpt lat="42.9851" lon="9.53975">
        <time>2019-10-13T17:38:32.001Z</time>
      </trkpt>
      <trkpt lat="42.9824" lon="9.54019">
        <time>2019-10-13T17:39:05.001Z</time>
      </trkpt>
      <trkpt lat="42.97969" lon="9.54073">
        <time>2019-10-13T17:39:38.001Z</time>
      </trkpt>
      <trkpt lat="42.9772" lon="9.54128">
        <time>2019-10-13T17:40:08.001Z</time>
      </trkpt>
      <trkpt lat="42.97445" lon="9.54181">
        <time>2019-10-13T17:40:41.001Z</time>
      </trkpt>
      <trkpt lat="42.97181" lon="9.54252">
        <time>2019-10-13T17:41:14.001Z</time>
      </trkpt>
      <trkpt lat="42.96916" lon="9.54301">
        <time>2019-10-13T17:41:47.001Z</time>
      </trkpt>
      <trkpt lat="42.96642" lon="9.54356">
        <time>2019-10-13T17:42:20.001Z</time>
      </trkpt>
      <trkpt lat="42.96353" lon="9.54398">
        <time>2019-10-13T17:42:53.001Z</time>
      </trkpt>
      <trkpt lat="42.96109" lon="9.54449">
        <time>2019-10-13T17:43:23.001Z</time>
      </trkpt>
      <trkpt lat="42.9585" lon="9.54509">
        <time>2019-10-13T17:43:56.001Z</time>
      </trkpt>
      <trkpt lat="42.95557" lon="9.54554">
        <time>2019-10-13T17:44:29.001Z</time>
      </trkpt>
      <trkpt lat="42.95292" lon="9.54603">
        <time>2019-10-13T17:45:02Z</time>
      </trkpt>
      <trkpt lat="42.95005" lon="9.54653">
        <time>2019-10-13T17:45:35.001Z</time>
      </trkpt>
      <trkpt lat="42.94766" lon="9.54709">
        <time>2019-10-13T17:46:05.001Z</time>
      </trkpt>
      <trkpt lat="42.94491" lon="9.54795">
        <time>2019-10-13T17:46:38.001Z</time>
      </trkpt>
      <trkpt lat="42.94228" lon="9.54845">
        <time>2019-10-13T17:47:11.001Z</time>
      </trkpt>
      <trkpt lat="42.93934" lon="9.54876">
        <time>2019-10-13T17:47:44.001Z</time>
      </trkpt>
      <trkpt lat="42.93659" lon="9.54902">
        <time>2019-10-13T17:48:17.001Z</time>
      </trkpt>
      <trkpt lat="42.93379" lon="9.54954">
        <ele>1.346</ele>
        <time>2019-10-13T17:48:50.001Z</time>
      </trkpt>
      <trkpt lat="42.93127" lon="9.55025">
        <ele>13.01</ele>
        <time>2019-10-13T17:49:20.001Z</time>
      </trkpt>
      <trkpt lat="42.92841" lon="9.55054">
        <ele>12.719</ele>
        <time>2019-10-13T17:49:53.001Z</time>
      </trkpt>
      <trkpt lat="42.92594" lon="9.55144">
        <ele>13.274</ele>
        <time>2019-10-13T17:50:26.001Z</time>
      </trkpt>
      <trkpt lat="42.9232" lon="9.55184">
        <ele>10.642</ele>
        <time>2019-10-13T17:50:59.001Z</time>
      </trkpt>
      <trkpt lat="42.92057" lon="9.55223">
        <time>2019-10-13T17:51:32.001Z</time>
      </trkpt>
      <trkpt lat="42.9182" lon="9.55283">
        <time>2019-10-13T17:52:02Z</time>
      </trkpt>
      <trkpt lat="42.91539" lon="9.55345">
        <ele>3.26</ele>
        <time>2019-10-13T17:52:35.001Z</time>
      </trkpt>
      <trkpt lat="42.91269" lon="9.55387">
        <ele>7.825</ele>
        <time>2019-10-13T17:53:08.001Z</time>
      </trkpt>
      <trkpt lat="42.90996" lon="9.55447">
        <ele>4.175</ele>
        <time>2019-10-13T17:53:41.001Z</time>
      </trkpt>
      <trkpt lat="42.90743" lon="9.55472">
        <time>2019-10-13T17:54:14.001Z</time>
      </trkpt>
      <trkpt lat="42.90474" lon="9.55509">
        <time>2019-10-13T17:54:47.001Z</time>
      </trkpt>
      <trkpt lat="42.90229" lon="9.55589">
        <time>2019-10-13T17:55:17.001Z</time>
      </trkpt>
      <trkpt lat="42.89947" lon="9.55631">
        <time>2019-10-13T17:55:50.001Z</time>
      </trkpt>
      <trkpt lat="42.89674" lon="9.55709">
        <time>2019-10-13T17:56:23.001Z</time>
      </trkpt>
      <trkpt lat="42.89398" lon="9.5575">
        <time>2019-10-13T17:56:56.001Z</time>
      </trkpt>
      <trkpt lat="42.89118" lon="9.5582">
        <time>2019-10-13T17:57:29.001Z</time>
      </trkpt>
      <trkpt lat="42.88875" lon="9.55871">
        <ele>15.532</ele>
        <time>2019-10-13T17:57:59.001Z</time>
      </trkpt>
      <trkpt lat="42.8859" lon="9.55924">
        <ele>21.876</ele>
        <time>2019-10-13T17:58:32.001Z</time>
      </trkpt>
      <trkpt lat="42.88349" lon="9.5598">
        <ele>23.572</ele>
        <time>2019-10-13T17:59:05.001Z</time>
      </trkpt>
      <trkpt lat="42.88058" lon="9.56031">
        <ele>21.851</ele>
        <time>2019-10-13T17:59:38.001Z</time>
      </trkpt>
      <trkpt lat="42.87782" lon="9.56096">
        <ele>17.67</ele>
        <time>2019-10-13T18:00:11.001Z</time>
      </trkpt>
      <trkpt lat="42.87539" lon="9.56156">
        <ele>5.768</ele>
        <time>2019-10-13T18:00:44.001Z</time>
      </trkpt>
      <trkpt lat="42.87286" lon="9.56245">
        <time>2019-10-13T18:01:14.001Z</time>
      </trkpt>
      <trkpt lat="42.86997" lon="9.56274">
        <time>2019-10-13T18:01:47.001Z</time>
      </trkpt>
      <trkpt lat="42.86721" lon="9.56314">
        <time>2019-10-13T18:02:20.001Z</time>
      </trkpt>
      <trkpt lat="42.86451" lon="9.56363">
        <time>2019-10-13T18:02:53.001Z</time>
      </trkpt>
      <trkpt lat="42.86172" lon="9.56435">
        <ele>7.227</ele>
        <time>2019-10-13T18:03:26.001Z</time>
      </trkpt>
      <trkpt lat="42.85935" lon="9.56487">
        <ele>3.454</ele>
        <time>2019-10-13T18:03:56.001Z</time>
      </trkpt>
      <trkpt lat="42.82045" lon="9.5728">
        <time>2019-10-13T18:11:47Z</time>
      </trkpt>
      <trkpt lat="42.75797" lon="9.53495">
        <time>2019-10-13T18:25:44Z</time>
      </trkpt>
      <trkpt lat="42.75561" lon="9.5326">
        <time>2019-10-13T18:26:17Z</time>
      </trkpt>
      <trkpt lat="42.75331" lon="9.53041">
        <time>2019-10-13T18:26:50Z</time>
      </trkpt>
      <trkpt lat="42.75106" lon="9.52808">
        <time>2019-10-13T18:27:23Z</time>
      </trkpt>
      <trkpt lat="42.7489" lon="9.5262">
        <time>2019-10-13T18:27:53Z</time>
      </trkpt>
      <trkpt lat="42.74659" lon="9.52388">
        <time>2019-10-13T18:28:26Z</time>
      </trkpt>
      <trkpt lat="42.74422" lon="9.52178">
        <time>2019-10-13T18:28:59Z</time>
      </trkpt>
      <trkpt lat="42.74194" lon="9.51931">
        <time>2019-10-13T18:29:32Z</time>
      </trkpt>
      <trkpt lat="42.73962" lon="9.51719">
        <time>2019-10-13T18:30:05Z</time>
      </trkpt>
      <trkpt lat="42.73758" lon="9.5151">
        <time>2019-10-13T18:30:35Z</time>
      </trkpt>
      <trkpt lat="42.73533" lon="9.5129">
        <time>2019-10-13T18:31:08Z</time>
      </trkpt>
      <trkpt lat="42.73306" lon="9.51071">
        <time>2019-10-13T18:31:41Z</time>
      </trkpt>
      <trkpt lat="42.7309" lon="9.50848">
        <time>2019-10-13T18:32:14Z</time>
      </trkpt>
      <trkpt lat="42.72872" lon="9.50631">
        <time>2019-10-13T18:32:47Z</time>
      </trkpt>
      <trkpt lat="42.72655" lon="9.50414">
        <time>2019-10-13T18:33:20Z</time>
      </trkpt>
      <trkpt lat="42.72467" lon="9.50227">
        <time>2019-10-13T18:33:50Z</time>
      </trkpt>
      <trkpt lat="42.72262" lon="9.50012">
        <time>2019-10-13T18:34:23Z</time>
      </trkpt>
      <trkpt lat="42.72054" lon="9.49818">
        <time>2019-10-13T18:34:56Z</time>
      </trkpt>
      <trkpt lat="42.7186" lon="9.49591">
        <time>2019-10-13T18:35:29Z</time>
      </trkpt>
      <trkpt lat="42.71697" lon="9.49368">
        <time>2019-10-13T18:36:02Z</time>
      </trkpt>
      <trkpt lat="42.71569" lon="9.49122">
        <time>2019-10-13T18:36:32Z</time>
      </trkpt>
      <trkpt lat="42.71439" lon="9.48894">
        <time>2019-10-13T18:37:05Z</time>
      </trkpt>
      <trkpt lat="42.71308" lon="9.48666">
        <time>2019-10-13T18:37:38Z</time>
      </trkpt>
      <trkpt lat="42.71182" lon="9.48467">
        <time>2019-10-13T18:38:11Z</time>
      </trkpt>
      <trkpt lat="42.71068" lon="9.48278">
        <time>2019-10-13T18:38:44Z</time>
      </trkpt>
      <trkpt lat="42.70967" lon="9.48071">
        <time>2019-10-13T18:39:17Z</time>
      </trkpt>
      <trkpt lat="42.70873" lon="9.47908">
        <time>2019-10-13T18:39:47Z</time>
      </trkpt>
      <trkpt lat="42.70778" lon="9.47737">
        <time>2019-10-13T18:40:20Z</time>
      </trkpt>
      <trkpt lat="42.70698" lon="9.47545">
        <time>2019-10-13T18:40:53Z</time>
      </trkpt>
      <trkpt lat="42.70611" lon="9.47345">
        <time>2019-10-13T18:41:26Z</time>
      </trkpt>
      <trkpt lat="42.70522" lon="9.47169">
        <time>2019-10-13T18:41:59Z</time>
      </trkpt>
      <trkpt lat="42.70446" lon="9.47001">
        <time>2019-10-13T18:42:29Z</time>
      </trkpt>
      <trkpt lat="42.70355" lon="9.46818">
        <time>2019-10-13T18:43:02Z</time>
      </trkpt>
      <trkpt lat="42.70271" lon="9.46647">
        <time>2019-10-13T18:43:35Z</time>
      </trkpt>
      <trkpt lat="42.70183" lon="9.46482">
        <time>2019-10-13T18:44:08Z</time>
      </trkpt>
      <trkpt lat="42.70081" lon="9.46299">
        <time>2019-10-13T18:44:41Z</time>
      </trkpt>
      <trkpt lat="42.70001" lon="9.46151">
        <time>2019-10-13T18:45:14Z</time>
      </trkpt>
      <trkpt lat="42.69915" lon="9.46027">
        <time>2019-10-13T18:45:44Z</time>
      </trkpt>
      <trkpt lat="42.69834" lon="9.45883">
        <time>2019-10-13T18:46:17Z</time>
      </trkpt>
      <trkpt lat="42.69776" lon="9.45772">
        <time>2019-10-13T18:46:50Z</time>
      </trkpt>
      <trkpt lat="42.69728" lon="9.45711">
        <time>2019-10-13T18:47:26Z</time>
      </trkpt>
      <trkpt lat="42.69673" lon="9.45663">
        <time>2019-10-13T18:48:14Z</time>
      </trkpt>
      <trkpt lat="42.69695" lon="9.45573">
        <time>2019-10-13T18:49:45Z</time>
      </trkpt>
      <trkpt lat="42.6971" lon="9.45531">
        <time>2019-10-13T18:50:30Z</time>
      </trkpt>
      <trkpt lat="42.69796" lon="9.45516">
        <time>2019-10-13T18:51:27Z</time>
      </trkpt>
      <trkpt lat="42.69879" lon="9.45388">
        <time>2019-10-13T18:52:30Z</time>
      </trkpt>
      <trkpt lat="42.70049" lon="9.452">
        <ele>6.935</ele>
        <time>2019-10-13T18:58:14Z</time>
      </trkpt>
      <trkpt lat="42.70064" lon="9.45215">
        <ele>22.692</ele>
        <time>2019-10-13T18:59:41Z</time>
      </trkpt>
      <trkpt lat="42.70093" lon="9.45215">
        <ele>33.776</ele>
        <time>2019-10-13T19:00:17Z</time>
      </trkpt>
      <trkpt lat="42.70104" lon="9.45213">
        <ele>23.01</ele>
        <time>2019-10-13T19:01:08Z</time>
      </trkpt>
      <trkpt lat="42.70105" lon="9.45245">
        <ele>4.645</ele>
        <time>2019-10-13T19:02:11Z</time>
      </trkpt>
      <trkpt lat="42.70172" lon="9.45279">
        <ele>4.797</ele>
        <time>2019-10-13T19:03:05Z</time>
      </trkpt>
      <trkpt lat="42.70235" lon="9.4532">
        <ele>9</ele>
        <time>2019-10-13T19:04:11Z</time>
      </trkpt>
      <trkpt lat="42.70349" lon="9.45376">
        <ele>3.219</ele>
        <time>2019-10-13T19:04:41Z</time>
      </trkpt>
      <trkpt lat="42.70451" lon="9.45427">
        <ele>9.659</ele>
        <time>2019-10-13T19:05:14Z</time>
      </trkpt>
      <trkpt lat="42.70484" lon="9.45478">
        <ele>11.77</ele>
        <time>2019-10-13T19:05:50Z</time>
      </trkpt>
      <trkpt lat="42.70571" lon="9.45506">
        <ele>10.639</ele>
        <time>2019-10-13T19:06:29Z</time>
      </trkpt>
      <trkpt lat="42.70668" lon="9.45401">
        <ele>3.027</ele>
        <time>2019-10-13T19:07:02Z</time>
      </trkpt>
      <trkpt lat="42.70642" lon="9.45281">
        <ele>5.033</ele>
        <time>2019-10-13T19:07:35Z</time>
      </trkpt>
      <trkpt lat="42.70514" lon="9.45371">
        <ele>7.8</ele>
        <time>2019-10-13T19:08:05Z</time>
      </trkpt>
      <trkpt lat="42.70369" lon="9.45324">
        <ele>12.4</ele>
        <time>2019-10-13T19:08:38Z</time>
      </trkpt>
      <trkpt lat="42.70298" lon="9.45185">
        <ele>15.4</ele>
        <time>2019-10-13T19:09:11Z</time>
      </trkpt>
      <trkpt lat="42.7023" lon="9.4508">
        <ele>11.375</ele>
        <time>2019-10-13T19:09:44Z</time>
      </trkpt>
      <trkpt lat="42.70229" lon="9.45017">
        <ele>10.287</ele>
        <time>2019-10-13T19:10:23Z</time>
      </trkpt>
    </trkseg>
  </trk>
</gpx>